<?xml version="1.0" encoding="UTF-8" standalone="yes"?>
<gpx
 xmlns="http://www.topografix.com/GPX/1/1"
 creator="OziExplorer Version 3956d - http://www.oziexplorer.com"
 version="1.1"
 xmlns:xsi="http://www.w3.org/2001/XMLSchema-instance"
 xsi:schemaLocation="http://www.topografix.com/GPX/1/1 http://www.topografix.com/GPX/1/1/gpx.xsd">
<metadata>
 <time>2015-04-08T16:35:48Z</time>
 <bounds minlat="33.220546" minlon="35.630986" maxlat="33.307958" maxlon="35.772296"/>
</metadata>
<trk>
 <name>Хоршат Таль - Хермон</name>
 <desc>Хоршат Таль - Хермон</desc>
<trkseg>
<trkpt lat="33.2226236" lon="35.6311893">
<ele>0.000000</ele>
<time>2015-04-06T04:54:50.000Z</time>
</trkpt>
<trkpt lat="33.2225000" lon="35.6312716">
<ele>0.000000</ele>
<time>2015-04-06T05:05:24.000Z</time>
</trkpt>
<trkpt lat="33.2223864" lon="35.6309871">
<ele>0.000000</ele>
<time>2015-04-06T05:05:59.000Z</time>
</trkpt>
<trkpt lat="33.2219569" lon="35.6309863">
<ele>0.000000</ele>
<time>2015-04-06T05:06:12.000Z</time>
</trkpt>
<trkpt lat="33.2217260" lon="35.6310999">
<ele>0.000000</ele>
<time>2015-04-06T05:06:18.000Z</time>
</trkpt>
<trkpt lat="33.2212630" lon="35.6311997">
<ele>0.000000</ele>
<time>2015-04-06T05:06:26.000Z</time>
</trkpt>
<trkpt lat="33.2208969" lon="35.6313892">
<ele>0.000000</ele>
<time>2015-04-06T05:06:32.000Z</time>
</trkpt>
<trkpt lat="33.2207429" lon="35.6316186">
<ele>0.000000</ele>
<time>2015-04-06T05:06:36.000Z</time>
</trkpt>
<trkpt lat="33.2207479" lon="35.6317551">
<ele>0.000000</ele>
<time>2015-04-06T05:06:38.000Z</time>
</trkpt>
<trkpt lat="33.2208588" lon="35.6321024">
<ele>0.000000</ele>
<time>2015-04-06T05:06:47.000Z</time>
</trkpt>
<trkpt lat="33.2205947" lon="35.6323489">
<ele>0.000000</ele>
<time>2015-04-06T05:06:58.000Z</time>
</trkpt>
<trkpt lat="33.2205458" lon="35.6324543">
<ele>0.000000</ele>
<time>2015-04-06T05:07:01.000Z</time>
</trkpt>
<trkpt lat="33.2205514" lon="35.6325757">
<ele>0.000000</ele>
<time>2015-04-06T05:07:04.000Z</time>
</trkpt>
<trkpt lat="33.2210043" lon="35.6329285">
<ele>0.000000</ele>
<time>2015-04-06T05:07:24.000Z</time>
</trkpt>
<trkpt lat="33.2213217" lon="35.6335253">
<ele>0.000000</ele>
<time>2015-04-06T05:07:48.000Z</time>
</trkpt>
<trkpt lat="33.2215498" lon="35.6337295">
<ele>0.000000</ele>
<time>2015-04-06T05:08:00.000Z</time>
</trkpt>
<trkpt lat="33.2216378" lon="35.6336961">
<ele>0.000000</ele>
<time>2015-04-06T05:08:05.000Z</time>
</trkpt>
<trkpt lat="33.2223840" lon="35.6325603">
<ele>0.000000</ele>
<time>2015-04-06T05:08:51.000Z</time>
</trkpt>
<trkpt lat="33.2229122" lon="35.6320054">
<ele>0.000000</ele>
<time>2015-04-06T05:09:15.000Z</time>
</trkpt>
<trkpt lat="33.2233318" lon="35.6317848">
<ele>0.000000</ele>
<time>2015-04-06T05:09:30.000Z</time>
</trkpt>
<trkpt lat="33.2235557" lon="35.6317813">
<ele>0.000000</ele>
<time>2015-04-06T05:09:39.000Z</time>
</trkpt>
<trkpt lat="33.2238461" lon="35.6319053">
<ele>0.000000</ele>
<time>2015-04-06T05:09:52.000Z</time>
</trkpt>
<trkpt lat="33.2241319" lon="35.6321271">
<ele>0.000000</ele>
<time>2015-04-06T05:10:04.000Z</time>
</trkpt>
<trkpt lat="33.2243125" lon="35.6324304">
<ele>0.000000</ele>
<time>2015-04-06T05:10:15.000Z</time>
</trkpt>
<trkpt lat="33.2260809" lon="35.6375734">
<ele>0.000000</ele>
<time>2015-04-06T05:12:21.000Z</time>
</trkpt>
<trkpt lat="33.2261896" lon="35.6381509">
<ele>0.000000</ele>
<time>2015-04-06T05:12:33.000Z</time>
</trkpt>
<trkpt lat="33.2264952" lon="35.6391050">
<ele>0.000000</ele>
<time>2015-04-06T05:12:58.000Z</time>
</trkpt>
<trkpt lat="33.2269143" lon="35.6402827">
<ele>0.000000</ele>
<time>2015-04-06T05:13:31.000Z</time>
</trkpt>
<trkpt lat="33.2275655" lon="35.6415945">
<ele>0.000000</ele>
<time>2015-04-06T05:14:13.000Z</time>
</trkpt>
<trkpt lat="33.2278615" lon="35.6420162">
<ele>0.000000</ele>
<time>2015-04-06T05:14:33.000Z</time>
</trkpt>
<trkpt lat="33.2273914" lon="35.6412333">
<ele>0.000000</ele>
<time>2015-04-06T05:15:03.000Z</time>
</trkpt>
<trkpt lat="33.2273589" lon="35.6411332">
<ele>0.000000</ele>
<time>2015-04-06T05:15:07.000Z</time>
</trkpt>
<trkpt lat="33.2274406" lon="35.6410726">
<ele>0.000000</ele>
<time>2015-04-06T05:15:12.000Z</time>
</trkpt>
<trkpt lat="33.2275431" lon="35.6411029">
<ele>0.000000</ele>
<time>2015-04-06T05:15:19.000Z</time>
</trkpt>
<trkpt lat="33.2278307" lon="35.6416298">
<ele>0.000000</ele>
<time>2015-04-06T05:15:40.000Z</time>
</trkpt>
<trkpt lat="33.2293630" lon="35.6437720">
<ele>0.000000</ele>
<time>2015-04-06T05:16:51.000Z</time>
</trkpt>
<trkpt lat="33.2294730" lon="35.6439774">
<ele>0.000000</ele>
<time>2015-04-06T05:17:00.000Z</time>
</trkpt>
<trkpt lat="33.2299949" lon="35.6445583">
<ele>0.000000</ele>
<time>2015-04-06T05:17:24.000Z</time>
</trkpt>
<trkpt lat="33.2326353" lon="35.6479753">
<ele>0.000000</ele>
<time>2015-04-06T05:19:09.000Z</time>
</trkpt>
<trkpt lat="33.2366248" lon="35.6536371">
<ele>0.000000</ele>
<time>2015-04-06T05:22:11.000Z</time>
</trkpt>
<trkpt lat="33.2378003" lon="35.6551864">
<ele>0.000000</ele>
<time>2015-04-06T05:23:15.000Z</time>
</trkpt>
<trkpt lat="33.2380259" lon="35.6557603">
<ele>0.000000</ele>
<time>2015-04-06T05:23:35.000Z</time>
</trkpt>
<trkpt lat="33.2380306" lon="35.6560287">
<ele>0.000000</ele>
<time>2015-04-06T05:23:43.000Z</time>
</trkpt>
<trkpt lat="33.2378928" lon="35.6566681">
<ele>0.000000</ele>
<time>2015-04-06T05:24:03.000Z</time>
</trkpt>
<trkpt lat="33.2378406" lon="35.6571730">
<ele>0.000000</ele>
<time>2015-04-06T05:24:17.000Z</time>
</trkpt>
<trkpt lat="33.2379163" lon="35.6578118">
<ele>0.000000</ele>
<time>2015-04-06T05:24:35.000Z</time>
</trkpt>
<trkpt lat="33.2380770" lon="35.6584445">
<ele>0.000000</ele>
<time>2015-04-06T05:24:57.000Z</time>
</trkpt>
<trkpt lat="33.2380804" lon="35.6593979">
<ele>0.000000</ele>
<time>2015-04-06T05:25:22.000Z</time>
</trkpt>
<trkpt lat="33.2382774" lon="35.6599997">
<ele>0.000000</ele>
<time>2015-04-06T05:25:41.000Z</time>
</trkpt>
<trkpt lat="33.2390238" lon="35.6608294">
<ele>0.000000</ele>
<time>2015-04-06T05:26:21.000Z</time>
</trkpt>
<trkpt lat="33.2414608" lon="35.6629997">
<ele>0.000000</ele>
<time>2015-04-06T05:28:17.000Z</time>
</trkpt>
<trkpt lat="33.2446228" lon="35.6659550">
<ele>0.000000</ele>
<time>2015-04-06T05:31:09.000Z</time>
</trkpt>
<trkpt lat="33.2467942" lon="35.6678308">
<ele>0.000000</ele>
<time>2015-04-06T05:33:07.000Z</time>
</trkpt>
<trkpt lat="33.2476169" lon="35.6686249">
<ele>0.000000</ele>
<time>2015-04-06T05:33:55.000Z</time>
</trkpt>
<trkpt lat="33.2481776" lon="35.6692695">
<ele>0.000000</ele>
<time>2015-04-06T05:34:35.000Z</time>
</trkpt>
<trkpt lat="33.2499687" lon="35.6715201">
<ele>0.000000</ele>
<time>2015-04-06T05:36:49.000Z</time>
</trkpt>
<trkpt lat="33.2507073" lon="35.6723429">
<ele>0.000000</ele>
<time>2015-04-06T05:37:41.000Z</time>
</trkpt>
<trkpt lat="33.2509081" lon="35.6726304">
<ele>0.000000</ele>
<time>2015-04-06T05:37:54.000Z</time>
</trkpt>
<trkpt lat="33.2509758" lon="35.6728476">
<ele>0.000000</ele>
<time>2015-04-06T05:38:02.000Z</time>
</trkpt>
<trkpt lat="33.2509474" lon="35.6730678">
<ele>0.000000</ele>
<time>2015-04-06T05:38:10.000Z</time>
</trkpt>
<trkpt lat="33.2506975" lon="35.6734208">
<ele>0.000000</ele>
<time>2015-04-06T05:38:27.000Z</time>
</trkpt>
<trkpt lat="33.2506019" lon="35.6735003">
<ele>0.000000</ele>
<time>2015-04-06T05:39:18.000Z</time>
</trkpt>
<trkpt lat="33.2504924" lon="35.6738275">
<ele>0.000000</ele>
<time>2015-04-06T05:40:40.000Z</time>
</trkpt>
<trkpt lat="33.2504510" lon="35.6743217">
<ele>0.000000</ele>
<time>2015-04-06T05:40:59.000Z</time>
</trkpt>
<trkpt lat="33.2505925" lon="35.6750603">
<ele>0.000000</ele>
<time>2015-04-06T05:41:29.000Z</time>
</trkpt>
<trkpt lat="33.2511551" lon="35.6772058">
<ele>0.000000</ele>
<time>2015-04-06T05:43:10.000Z</time>
</trkpt>
<trkpt lat="33.2511240" lon="35.6772740">
<ele>0.000000</ele>
<time>2015-04-06T05:44:10.000Z</time>
</trkpt>
<trkpt lat="33.2512169" lon="35.6773296">
<ele>0.000000</ele>
<time>2015-04-06T05:49:25.000Z</time>
</trkpt>
<trkpt lat="33.2512913" lon="35.6777755">
<ele>0.000000</ele>
<time>2015-04-06T05:49:52.000Z</time>
</trkpt>
<trkpt lat="33.2512454" lon="35.6781313">
<ele>0.000000</ele>
<time>2015-04-06T05:50:10.000Z</time>
</trkpt>
<trkpt lat="33.2509270" lon="35.6783898">
<ele>0.000000</ele>
<time>2015-04-06T05:50:34.000Z</time>
</trkpt>
<trkpt lat="33.2505228" lon="35.6784782">
<ele>0.000000</ele>
<time>2015-04-06T05:50:58.000Z</time>
</trkpt>
<trkpt lat="33.2492089" lon="35.6780078">
<ele>0.000000</ele>
<time>2015-04-06T05:52:47.000Z</time>
</trkpt>
<trkpt lat="33.2489305" lon="35.6779237">
<ele>0.000000</ele>
<time>2015-04-06T05:53:02.000Z</time>
</trkpt>
<trkpt lat="33.2486351" lon="35.6779411">
<ele>0.000000</ele>
<time>2015-04-06T05:53:17.000Z</time>
</trkpt>
<trkpt lat="33.2484542" lon="35.6780634">
<ele>0.000000</ele>
<time>2015-04-06T05:53:28.000Z</time>
</trkpt>
<trkpt lat="33.2482776" lon="35.6783204">
<ele>0.000000</ele>
<time>2015-04-06T05:53:43.000Z</time>
</trkpt>
<trkpt lat="33.2478460" lon="35.6797476">
<ele>0.000000</ele>
<time>2015-04-06T05:54:52.000Z</time>
</trkpt>
<trkpt lat="33.2477595" lon="35.6805956">
<ele>0.000000</ele>
<time>2015-04-06T05:55:32.000Z</time>
</trkpt>
<trkpt lat="33.2476288" lon="35.6829419">
<ele>0.000000</ele>
<time>2015-04-06T05:57:22.000Z</time>
</trkpt>
<trkpt lat="33.2474561" lon="35.6850713">
<ele>0.000000</ele>
<time>2015-04-06T05:58:26.000Z</time>
</trkpt>
<trkpt lat="33.2473448" lon="35.6881550">
<ele>0.000000</ele>
<time>2015-04-06T05:59:51.000Z</time>
</trkpt>
<trkpt lat="33.2473742" lon="35.6892179">
<ele>0.000000</ele>
<time>2015-04-06T06:00:10.000Z</time>
</trkpt>
<trkpt lat="33.2474604" lon="35.6901778">
<ele>0.000000</ele>
<time>2015-04-06T06:00:26.000Z</time>
</trkpt>
<trkpt lat="33.2475919" lon="35.6905272">
<ele>0.000000</ele>
<time>2015-04-06T06:00:32.000Z</time>
</trkpt>
<trkpt lat="33.2481674" lon="35.6913178">
<ele>0.000000</ele>
<time>2015-04-06T06:00:46.000Z</time>
</trkpt>
<trkpt lat="33.2482170" lon="35.6914540">
<ele>0.000000</ele>
<time>2015-04-06T06:00:48.000Z</time>
</trkpt>
<trkpt lat="33.2482111" lon="35.6917384">
<ele>0.000000</ele>
<time>2015-04-06T06:00:52.000Z</time>
</trkpt>
<trkpt lat="33.2480382" lon="35.6919456">
<ele>0.000000</ele>
<time>2015-04-06T06:00:56.000Z</time>
</trkpt>
<trkpt lat="33.2477313" lon="35.6921057">
<ele>0.000000</ele>
<time>2015-04-06T06:01:02.000Z</time>
</trkpt>
<trkpt lat="33.2475200" lon="35.6924149">
<ele>0.000000</ele>
<time>2015-04-06T06:01:11.000Z</time>
</trkpt>
<trkpt lat="33.2474052" lon="35.6924307">
<ele>0.000000</ele>
<time>2015-04-06T06:01:14.000Z</time>
</trkpt>
<trkpt lat="33.2470698" lon="35.6923565">
<ele>0.000000</ele>
<time>2015-04-06T06:01:24.000Z</time>
</trkpt>
<trkpt lat="33.2463413" lon="35.6918953">
<ele>0.000000</ele>
<time>2015-04-06T06:01:51.000Z</time>
</trkpt>
<trkpt lat="33.2453765" lon="35.6914075">
<ele>0.000000</ele>
<time>2015-04-06T06:04:44.000Z</time>
</trkpt>
<trkpt lat="33.2449700" lon="35.6911029">
<ele>0.000000</ele>
<time>2015-04-06T06:06:18.000Z</time>
</trkpt>
<trkpt lat="33.2440420" lon="35.6906391">
<ele>0.000000</ele>
<time>2015-04-06T06:07:13.000Z</time>
</trkpt>
<trkpt lat="33.2439609" lon="35.6905742">
<ele>0.000000</ele>
<time>2015-04-06T06:07:19.000Z</time>
</trkpt>
<trkpt lat="33.2436716" lon="35.6900604">
<ele>0.000000</ele>
<time>2015-04-06T06:07:50.000Z</time>
</trkpt>
<trkpt lat="33.2433990" lon="35.6899330">
<ele>0.000000</ele>
<time>2015-04-06T06:08:05.000Z</time>
</trkpt>
<trkpt lat="33.2432174" lon="35.6900617">
<ele>0.000000</ele>
<time>2015-04-06T06:08:17.000Z</time>
</trkpt>
<trkpt lat="33.2426234" lon="35.6911407">
<ele>0.000000</ele>
<time>2015-04-06T06:09:25.000Z</time>
</trkpt>
<trkpt lat="33.2424857" lon="35.6914438">
<ele>0.000000</ele>
<time>2015-04-06T06:09:43.000Z</time>
</trkpt>
<trkpt lat="33.2424667" lon="35.6916907">
<ele>0.000000</ele>
<time>2015-04-06T06:09:54.000Z</time>
</trkpt>
<trkpt lat="33.2433258" lon="35.6950587">
<ele>0.000000</ele>
<time>2015-04-06T06:12:18.000Z</time>
</trkpt>
<trkpt lat="33.2433689" lon="35.6954101">
<ele>0.000000</ele>
<time>2015-04-06T06:12:27.000Z</time>
</trkpt>
<trkpt lat="33.2432715" lon="35.6963805">
<ele>0.000000</ele>
<time>2015-04-06T06:13:02.000Z</time>
</trkpt>
<trkpt lat="33.2429088" lon="35.6971829">
<ele>0.000000</ele>
<time>2015-04-06T06:13:50.000Z</time>
</trkpt>
<trkpt lat="33.2427450" lon="35.6974826">
<ele>0.000000</ele>
<time>2015-04-06T06:14:07.000Z</time>
</trkpt>
<trkpt lat="33.2424625" lon="35.6978100">
<ele>0.000000</ele>
<time>2015-04-06T06:14:32.000Z</time>
</trkpt>
<trkpt lat="33.2425036" lon="35.6978994">
<ele>0.000000</ele>
<time>2015-04-06T06:15:57.000Z</time>
</trkpt>
<trkpt lat="33.2422998" lon="35.6979535">
<ele>0.000000</ele>
<time>2015-04-06T06:19:32.000Z</time>
</trkpt>
<trkpt lat="33.2420721" lon="35.6981812">
<ele>0.000000</ele>
<time>2015-04-06T06:19:50.000Z</time>
</trkpt>
<trkpt lat="33.2417069" lon="35.6984266">
<ele>0.000000</ele>
<time>2015-04-06T06:20:14.000Z</time>
</trkpt>
<trkpt lat="33.2415232" lon="35.6984105">
<ele>0.000000</ele>
<time>2015-04-06T06:20:26.000Z</time>
</trkpt>
<trkpt lat="33.2411098" lon="35.6982095">
<ele>0.000000</ele>
<time>2015-04-06T06:21:51.000Z</time>
</trkpt>
<trkpt lat="33.2409035" lon="35.6982402">
<ele>0.000000</ele>
<time>2015-04-06T06:22:03.000Z</time>
</trkpt>
<trkpt lat="33.2408097" lon="35.6983103">
<ele>0.000000</ele>
<time>2015-04-06T06:22:09.000Z</time>
</trkpt>
<trkpt lat="33.2407416" lon="35.6984191">
<ele>0.000000</ele>
<time>2015-04-06T06:22:15.000Z</time>
</trkpt>
<trkpt lat="33.2406941" lon="35.6986446">
<ele>0.000000</ele>
<time>2015-04-06T06:22:25.000Z</time>
</trkpt>
<trkpt lat="33.2406398" lon="35.6997252">
<ele>0.000000</ele>
<time>2015-04-06T06:23:11.000Z</time>
</trkpt>
<trkpt lat="33.2401245" lon="35.7010858">
<ele>0.000000</ele>
<time>2015-04-06T06:24:39.000Z</time>
</trkpt>
<trkpt lat="33.2401653" lon="35.7010689">
<ele>0.000000</ele>
<time>2015-04-06T06:25:38.000Z</time>
</trkpt>
<trkpt lat="33.2399398" lon="35.7016877">
<ele>0.000000</ele>
<time>2015-04-06T06:26:21.000Z</time>
</trkpt>
<trkpt lat="33.2394931" lon="35.7028032">
<ele>0.000000</ele>
<time>2015-04-06T06:27:42.000Z</time>
</trkpt>
<trkpt lat="33.2393348" lon="35.7029473">
<ele>0.000000</ele>
<time>2015-04-06T06:27:57.000Z</time>
</trkpt>
<trkpt lat="33.2390697" lon="35.7029967">
<ele>0.000000</ele>
<time>2015-04-06T06:28:19.000Z</time>
</trkpt>
<trkpt lat="33.2390234" lon="35.7030910">
<ele>0.000000</ele>
<time>2015-04-06T06:28:26.000Z</time>
</trkpt>
<trkpt lat="33.2389974" lon="35.7031761">
<ele>0.000000</ele>
<time>2015-04-06T06:28:39.000Z</time>
</trkpt>
<trkpt lat="33.2391779" lon="35.7036387">
<ele>0.000000</ele>
<time>2015-04-06T06:31:58.000Z</time>
</trkpt>
<trkpt lat="33.2398976" lon="35.7047773">
<ele>0.000000</ele>
<time>2015-04-06T06:33:34.000Z</time>
</trkpt>
<trkpt lat="33.2400168" lon="35.7050918">
<ele>0.000000</ele>
<time>2015-04-06T06:33:51.000Z</time>
</trkpt>
<trkpt lat="33.2402010" lon="35.7058652">
<ele>0.000000</ele>
<time>2015-04-06T06:35:12.000Z</time>
</trkpt>
<trkpt lat="33.2401325" lon="35.7059526">
<ele>0.000000</ele>
<time>2015-04-06T06:35:20.000Z</time>
</trkpt>
<trkpt lat="33.2400928" lon="35.7063093">
<ele>0.000000</ele>
<time>2015-04-06T06:35:36.000Z</time>
</trkpt>
<trkpt lat="33.2399666" lon="35.7067619">
<ele>0.000000</ele>
<time>2015-04-06T06:35:59.000Z</time>
</trkpt>
<trkpt lat="33.2362118" lon="35.7156892">
<ele>0.000000</ele>
<time>2015-04-06T06:46:14.000Z</time>
</trkpt>
<trkpt lat="33.2360767" lon="35.7163643">
<ele>0.000000</ele>
<time>2015-04-06T06:46:53.000Z</time>
</trkpt>
<trkpt lat="33.2361198" lon="35.7168223">
<ele>0.000000</ele>
<time>2015-04-06T06:47:14.000Z</time>
</trkpt>
<trkpt lat="33.2362657" lon="35.7172479">
<ele>0.000000</ele>
<time>2015-04-06T06:47:34.000Z</time>
</trkpt>
<trkpt lat="33.2364664" lon="35.7175398">
<ele>0.000000</ele>
<time>2015-04-06T06:47:45.000Z</time>
</trkpt>
<trkpt lat="33.2368981" lon="35.7178651">
<ele>0.000000</ele>
<time>2015-04-06T06:48:00.000Z</time>
</trkpt>
<trkpt lat="33.2372517" lon="35.7180057">
<ele>0.000000</ele>
<time>2015-04-06T06:48:12.000Z</time>
</trkpt>
<trkpt lat="33.2377455" lon="35.7179997">
<ele>0.000000</ele>
<time>2015-04-06T06:48:28.000Z</time>
</trkpt>
<trkpt lat="33.2380724" lon="35.7178836">
<ele>0.000000</ele>
<time>2015-04-06T06:48:40.000Z</time>
</trkpt>
<trkpt lat="33.2383637" lon="35.7176607">
<ele>0.000000</ele>
<time>2015-04-06T06:48:52.000Z</time>
</trkpt>
<trkpt lat="33.2390676" lon="35.7167527">
<ele>0.000000</ele>
<time>2015-04-06T06:49:44.000Z</time>
</trkpt>
<trkpt lat="33.2395933" lon="35.7163414">
<ele>0.000000</ele>
<time>2015-04-06T06:50:13.000Z</time>
</trkpt>
<trkpt lat="33.2400862" lon="35.7161774">
<ele>0.000000</ele>
<time>2015-04-06T06:50:30.000Z</time>
</trkpt>
<trkpt lat="33.2404983" lon="35.7161400">
<ele>0.000000</ele>
<time>2015-04-06T06:50:50.000Z</time>
</trkpt>
<trkpt lat="33.2406778" lon="35.7160529">
<ele>0.000000</ele>
<time>2015-04-06T06:51:02.000Z</time>
</trkpt>
<trkpt lat="33.2407701" lon="35.7161119">
<ele>0.000000</ele>
<time>2015-04-06T06:51:55.000Z</time>
</trkpt>
<trkpt lat="33.2420956" lon="35.7159899">
<ele>0.000000</ele>
<time>2015-04-06T06:56:21.000Z</time>
</trkpt>
<trkpt lat="33.2426157" lon="35.7160449">
<ele>0.000000</ele>
<time>2015-04-06T06:56:33.000Z</time>
</trkpt>
<trkpt lat="33.2457346" lon="35.7171104">
<ele>0.000000</ele>
<time>2015-04-06T07:00:27.000Z</time>
</trkpt>
<trkpt lat="33.2459841" lon="35.7172924">
<ele>0.000000</ele>
<time>2015-04-06T07:00:50.000Z</time>
</trkpt>
<trkpt lat="33.2463101" lon="35.7177327">
<ele>0.000000</ele>
<time>2015-04-06T07:01:28.000Z</time>
</trkpt>
<trkpt lat="33.2464873" lon="35.7181283">
<ele>0.000000</ele>
<time>2015-04-06T07:01:58.000Z</time>
</trkpt>
<trkpt lat="33.2467664" lon="35.7190949">
<ele>0.000000</ele>
<time>2015-04-06T07:03:02.000Z</time>
</trkpt>
<trkpt lat="33.2467832" lon="35.7197692">
<ele>0.000000</ele>
<time>2015-04-06T07:03:46.000Z</time>
</trkpt>
<trkpt lat="33.2466942" lon="35.7205505">
<ele>0.000000</ele>
<time>2015-04-06T07:04:42.000Z</time>
</trkpt>
<trkpt lat="33.2465444" lon="35.7209666">
<ele>0.000000</ele>
<time>2015-04-06T07:05:14.000Z</time>
</trkpt>
<trkpt lat="33.2459265" lon="35.7218209">
<ele>0.000000</ele>
<time>2015-04-06T07:06:33.000Z</time>
</trkpt>
<trkpt lat="33.2458090" lon="35.7222505">
<ele>0.000000</ele>
<time>2015-04-06T07:07:05.000Z</time>
</trkpt>
<trkpt lat="33.2458099" lon="35.7226064">
<ele>0.000000</ele>
<time>2015-04-06T07:07:29.000Z</time>
</trkpt>
<trkpt lat="33.2459142" lon="35.7229111">
<ele>0.000000</ele>
<time>2015-04-06T07:08:21.000Z</time>
</trkpt>
<trkpt lat="33.2461615" lon="35.7232590">
<ele>0.000000</ele>
<time>2015-04-06T07:08:49.000Z</time>
</trkpt>
<trkpt lat="33.2465197" lon="35.7234684">
<ele>0.000000</ele>
<time>2015-04-06T07:09:13.000Z</time>
</trkpt>
<trkpt lat="33.2467141" lon="35.7234899">
<ele>0.000000</ele>
<time>2015-04-06T07:09:25.000Z</time>
</trkpt>
<trkpt lat="33.2483497" lon="35.7234116">
<ele>0.000000</ele>
<time>2015-04-06T07:11:13.000Z</time>
</trkpt>
<trkpt lat="33.2485503" lon="35.7233895">
<ele>0.000000</ele>
<time>2015-04-06T07:11:25.000Z</time>
</trkpt>
<trkpt lat="33.2488299" lon="35.7232666">
<ele>0.000000</ele>
<time>2015-04-06T07:11:44.000Z</time>
</trkpt>
<trkpt lat="33.2491983" lon="35.7228413">
<ele>0.000000</ele>
<time>2015-04-06T07:12:18.000Z</time>
</trkpt>
<trkpt lat="33.2500009" lon="35.7211609">
<ele>0.000000</ele>
<time>2015-04-06T07:14:24.000Z</time>
</trkpt>
<trkpt lat="33.2502919" lon="35.7206817">
<ele>0.000000</ele>
<time>2015-04-06T07:15:04.000Z</time>
</trkpt>
<trkpt lat="33.2505350" lon="35.7205145">
<ele>0.000000</ele>
<time>2015-04-06T07:15:27.000Z</time>
</trkpt>
<trkpt lat="33.2518609" lon="35.7198308">
<ele>0.000000</ele>
<time>2015-04-06T07:17:17.000Z</time>
</trkpt>
<trkpt lat="33.2521286" lon="35.7195723">
<ele>0.000000</ele>
<time>2015-04-06T07:20:40.000Z</time>
</trkpt>
<trkpt lat="33.2524233" lon="35.7194625">
<ele>0.000000</ele>
<time>2015-04-06T07:21:01.000Z</time>
</trkpt>
<trkpt lat="33.2525099" lon="35.7192446">
<ele>0.000000</ele>
<time>2015-04-06T07:21:43.000Z</time>
</trkpt>
<trkpt lat="33.2524398" lon="35.7192834">
<ele>0.000000</ele>
<time>2015-04-06T07:24:20.000Z</time>
</trkpt>
<trkpt lat="33.2524884" lon="35.7195033">
<ele>0.000000</ele>
<time>2015-04-06T07:25:07.000Z</time>
</trkpt>
<trkpt lat="33.2525406" lon="35.7196022">
<ele>0.000000</ele>
<time>2015-04-06T07:25:12.000Z</time>
</trkpt>
<trkpt lat="33.2528058" lon="35.7197819">
<ele>0.000000</ele>
<time>2015-04-06T07:25:34.000Z</time>
</trkpt>
<trkpt lat="33.2529106" lon="35.7199804">
<ele>0.000000</ele>
<time>2015-04-06T07:25:49.000Z</time>
</trkpt>
<trkpt lat="33.2529296" lon="35.7202056">
<ele>0.000000</ele>
<time>2015-04-06T07:26:05.000Z</time>
</trkpt>
<trkpt lat="33.2528879" lon="35.7204284">
<ele>0.000000</ele>
<time>2015-04-06T07:26:21.000Z</time>
</trkpt>
<trkpt lat="33.2527812" lon="35.7206193">
<ele>0.000000</ele>
<time>2015-04-06T07:26:37.000Z</time>
</trkpt>
<trkpt lat="33.2519140" lon="35.7213981">
<ele>0.000000</ele>
<time>2015-04-06T07:27:42.000Z</time>
</trkpt>
<trkpt lat="33.2512428" lon="35.7225994">
<ele>0.000000</ele>
<time>2015-04-06T07:29:01.000Z</time>
</trkpt>
<trkpt lat="33.2509562" lon="35.7233529">
<ele>0.000000</ele>
<time>2015-04-06T07:30:27.000Z</time>
</trkpt>
<trkpt lat="33.2508196" lon="35.7238809">
<ele>0.000000</ele>
<time>2015-04-06T07:30:59.000Z</time>
</trkpt>
<trkpt lat="33.2502580" lon="35.7272406">
<ele>0.000000</ele>
<time>2015-04-06T07:33:55.000Z</time>
</trkpt>
<trkpt lat="33.2496635" lon="35.7284965">
<ele>0.000000</ele>
<time>2015-04-06T07:35:17.000Z</time>
</trkpt>
<trkpt lat="33.2495869" lon="35.7285583">
<ele>0.000000</ele>
<time>2015-04-06T07:35:24.000Z</time>
</trkpt>
<trkpt lat="33.2495398" lon="35.7284841">
<ele>0.000000</ele>
<time>2015-04-06T07:39:29.000Z</time>
</trkpt>
<trkpt lat="33.2496560" lon="35.7286699">
<ele>0.000000</ele>
<time>2015-04-06T07:43:15.000Z</time>
</trkpt>
<trkpt lat="33.2496902" lon="35.7291367">
<ele>0.000000</ele>
<time>2015-04-06T07:43:44.000Z</time>
</trkpt>
<trkpt lat="33.2503809" lon="35.7308104">
<ele>0.000000</ele>
<time>2015-04-06T07:45:05.000Z</time>
</trkpt>
<trkpt lat="33.2505478" lon="35.7311688">
<ele>0.000000</ele>
<time>2015-04-06T07:45:11.000Z</time>
</trkpt>
<trkpt lat="33.2507433" lon="35.7314252">
<ele>0.000000</ele>
<time>2015-04-06T07:45:15.000Z</time>
</trkpt>
<trkpt lat="33.2510125" lon="35.7315953">
<ele>0.000000</ele>
<time>2015-04-06T07:45:19.000Z</time>
</trkpt>
<trkpt lat="33.2511595" lon="35.7316212">
<ele>0.000000</ele>
<time>2015-04-06T07:45:21.000Z</time>
</trkpt>
<trkpt lat="33.2516674" lon="35.7315502">
<ele>0.000000</ele>
<time>2015-04-06T07:45:29.000Z</time>
</trkpt>
<trkpt lat="33.2530666" lon="35.7309787">
<ele>0.000000</ele>
<time>2015-04-06T07:46:54.000Z</time>
</trkpt>
<trkpt lat="33.2552443" lon="35.7309487">
<ele>0.000000</ele>
<time>2015-04-06T07:49:34.000Z</time>
</trkpt>
<trkpt lat="33.2560429" lon="35.7308417">
<ele>0.000000</ele>
<time>2015-04-06T07:50:22.000Z</time>
</trkpt>
<trkpt lat="33.2571956" lon="35.7304770">
<ele>0.000000</ele>
<time>2015-04-06T07:51:31.000Z</time>
</trkpt>
<trkpt lat="33.2574681" lon="35.7303004">
<ele>0.000000</ele>
<time>2015-04-06T07:51:50.000Z</time>
</trkpt>
<trkpt lat="33.2577675" lon="35.7299660">
<ele>0.000000</ele>
<time>2015-04-06T07:52:18.000Z</time>
</trkpt>
<trkpt lat="33.2587519" lon="35.7285182">
<ele>0.000000</ele>
<time>2015-04-06T07:53:57.000Z</time>
</trkpt>
<trkpt lat="33.2593047" lon="35.7278247">
<ele>0.000000</ele>
<time>2015-04-06T07:54:56.000Z</time>
</trkpt>
<trkpt lat="33.2595619" lon="35.7276636">
<ele>0.000000</ele>
<time>2015-04-06T07:55:19.000Z</time>
</trkpt>
<trkpt lat="33.2597602" lon="35.7276386">
<ele>0.000000</ele>
<time>2015-04-06T07:55:34.000Z</time>
</trkpt>
<trkpt lat="33.2599480" lon="35.7276663">
<ele>0.000000</ele>
<time>2015-04-06T07:55:49.000Z</time>
</trkpt>
<trkpt lat="33.2601199" lon="35.7277804">
<ele>0.000000</ele>
<time>2015-04-06T07:56:05.000Z</time>
</trkpt>
<trkpt lat="33.2603542" lon="35.7281561">
<ele>0.000000</ele>
<time>2015-04-06T07:56:35.000Z</time>
</trkpt>
<trkpt lat="33.2603573" lon="35.7283392">
<ele>0.000000</ele>
<time>2015-04-06T07:58:34.000Z</time>
</trkpt>
<trkpt lat="33.2604015" lon="35.7283999">
<ele>0.000000</ele>
<time>2015-04-06T08:07:01.000Z</time>
</trkpt>
<trkpt lat="33.2602001" lon="35.7293173">
<ele>0.000000</ele>
<time>2015-04-06T08:08:06.000Z</time>
</trkpt>
<trkpt lat="33.2601529" lon="35.7297756">
<ele>0.000000</ele>
<time>2015-04-06T08:08:37.000Z</time>
</trkpt>
<trkpt lat="33.2604668" lon="35.7335737">
<ele>0.000000</ele>
<time>2015-04-06T08:12:32.000Z</time>
</trkpt>
<trkpt lat="33.2606123" lon="35.7348298">
<ele>0.000000</ele>
<time>2015-04-06T08:13:53.000Z</time>
</trkpt>
<trkpt lat="33.2607096" lon="35.7365297">
<ele>0.000000</ele>
<time>2015-04-06T08:15:45.000Z</time>
</trkpt>
<trkpt lat="33.2609148" lon="35.7370322">
<ele>0.000000</ele>
<time>2015-04-06T08:16:21.000Z</time>
</trkpt>
<trkpt lat="33.2617339" lon="35.7381786">
<ele>0.000000</ele>
<time>2015-04-06T08:18:10.000Z</time>
</trkpt>
<trkpt lat="33.2620968" lon="35.7389131">
<ele>0.000000</ele>
<time>2015-04-06T08:18:55.000Z</time>
</trkpt>
<trkpt lat="33.2621550" lon="35.7389457">
<ele>0.000000</ele>
<time>2015-04-06T08:19:23.000Z</time>
</trkpt>
<trkpt lat="33.2621352" lon="35.7387983">
<ele>0.000000</ele>
<time>2015-04-06T08:19:28.000Z</time>
</trkpt>
<trkpt lat="33.2617692" lon="35.7380941">
<ele>0.000000</ele>
<time>2015-04-06T08:19:54.000Z</time>
</trkpt>
<trkpt lat="33.2619590" lon="35.7381397">
<ele>0.000000</ele>
<time>2015-04-06T08:20:10.000Z</time>
</trkpt>
<trkpt lat="33.2623427" lon="35.7384630">
<ele>0.000000</ele>
<time>2015-04-06T08:22:35.000Z</time>
</trkpt>
<trkpt lat="33.2629289" lon="35.7393157">
<ele>0.000000</ele>
<time>2015-04-06T08:22:56.000Z</time>
</trkpt>
<trkpt lat="33.2636665" lon="35.7401803">
<ele>0.000000</ele>
<time>2015-04-06T08:26:22.000Z</time>
</trkpt>
<trkpt lat="33.2646474" lon="35.7422474">
<ele>0.000000</ele>
<time>2015-04-06T08:31:06.000Z</time>
</trkpt>
<trkpt lat="33.2646680" lon="35.7433117">
<ele>0.000000</ele>
<time>2015-04-06T08:31:29.000Z</time>
</trkpt>
<trkpt lat="33.2647521" lon="35.7449290">
<ele>0.000000</ele>
<time>2015-04-06T08:31:52.000Z</time>
</trkpt>
<trkpt lat="33.2647368" lon="35.7451439">
<ele>0.000000</ele>
<time>2015-04-06T08:31:58.000Z</time>
</trkpt>
<trkpt lat="33.2645627" lon="35.7454480">
<ele>0.000000</ele>
<time>2015-04-06T08:32:13.000Z</time>
</trkpt>
<trkpt lat="33.2645752" lon="35.7455597">
<ele>0.000000</ele>
<time>2015-04-06T08:32:20.000Z</time>
</trkpt>
<trkpt lat="33.2649689" lon="35.7453099">
<ele>0.000000</ele>
<time>2015-04-06T08:33:56.000Z</time>
</trkpt>
<trkpt lat="33.2655696" lon="35.7451339">
<ele>0.000000</ele>
<time>2015-04-06T08:34:06.000Z</time>
</trkpt>
<trkpt lat="33.2659272" lon="35.7446500">
<ele>0.000000</ele>
<time>2015-04-06T08:34:17.000Z</time>
</trkpt>
<trkpt lat="33.2659845" lon="35.7443956">
<ele>0.000000</ele>
<time>2015-04-06T08:34:24.000Z</time>
</trkpt>
<trkpt lat="33.2662470" lon="35.7441072">
<ele>0.000000</ele>
<time>2015-04-06T08:34:33.000Z</time>
</trkpt>
<trkpt lat="33.2663135" lon="35.7438720">
<ele>0.000000</ele>
<time>2015-04-06T08:34:39.000Z</time>
</trkpt>
<trkpt lat="33.2662628" lon="35.7437648">
<ele>0.000000</ele>
<time>2015-04-06T08:34:43.000Z</time>
</trkpt>
<trkpt lat="33.2659559" lon="35.7436125">
<ele>0.000000</ele>
<time>2015-04-06T08:34:56.000Z</time>
</trkpt>
<trkpt lat="33.2655792" lon="35.7427804">
<ele>0.000000</ele>
<time>2015-04-06T08:35:18.000Z</time>
</trkpt>
<trkpt lat="33.2655292" lon="35.7424087">
<ele>0.000000</ele>
<time>2015-04-06T08:35:27.000Z</time>
</trkpt>
<trkpt lat="33.2654152" lon="35.7420600">
<ele>0.000000</ele>
<time>2015-04-06T08:35:40.000Z</time>
</trkpt>
<trkpt lat="33.2654357" lon="35.7416751">
<ele>0.000000</ele>
<time>2015-04-06T08:36:44.000Z</time>
</trkpt>
<trkpt lat="33.2650596" lon="35.7410832">
<ele>0.000000</ele>
<time>2015-04-06T08:36:59.000Z</time>
</trkpt>
<trkpt lat="33.2649474" lon="35.7407328">
<ele>0.000000</ele>
<time>2015-04-06T08:37:08.000Z</time>
</trkpt>
<trkpt lat="33.2647831" lon="35.7404550">
<ele>0.000000</ele>
<time>2015-04-06T08:37:19.000Z</time>
</trkpt>
<trkpt lat="33.2647906" lon="35.7403604">
<ele>0.000000</ele>
<time>2015-04-06T08:37:34.000Z</time>
</trkpt>
<trkpt lat="33.2646280" lon="35.7399469">
<ele>0.000000</ele>
<time>2015-04-06T08:38:15.000Z</time>
</trkpt>
<trkpt lat="33.2645567" lon="35.7393395">
<ele>0.000000</ele>
<time>2015-04-06T08:38:43.000Z</time>
</trkpt>
<trkpt lat="33.2641738" lon="35.7381747">
<ele>0.000000</ele>
<time>2015-04-06T08:40:37.000Z</time>
</trkpt>
<trkpt lat="33.2641855" lon="35.7379194">
<ele>0.000000</ele>
<time>2015-04-06T08:40:49.000Z</time>
</trkpt>
<trkpt lat="33.2651706" lon="35.7361404">
<ele>0.000000</ele>
<time>2015-04-06T08:44:11.000Z</time>
</trkpt>
<trkpt lat="33.2654287" lon="35.7353889">
<ele>0.000000</ele>
<time>2015-04-06T08:45:04.000Z</time>
</trkpt>
<trkpt lat="33.2656696" lon="35.7348560">
<ele>0.000000</ele>
<time>2015-04-06T08:45:31.000Z</time>
</trkpt>
<trkpt lat="33.2656709" lon="35.7347412">
<ele>0.000000</ele>
<time>2015-04-06T08:45:38.000Z</time>
</trkpt>
<trkpt lat="33.2653865" lon="35.7343473">
<ele>0.000000</ele>
<time>2015-04-06T08:46:24.000Z</time>
</trkpt>
<trkpt lat="33.2654551" lon="35.7342810">
<ele>0.000000</ele>
<time>2015-04-06T08:53:52.000Z</time>
</trkpt>
<trkpt lat="33.2655198" lon="35.7340688">
<ele>0.000000</ele>
<time>2015-04-06T08:54:20.000Z</time>
</trkpt>
<trkpt lat="33.2658540" lon="35.7336467">
<ele>0.000000</ele>
<time>2015-04-06T08:55:08.000Z</time>
</trkpt>
<trkpt lat="33.2658823" lon="35.7335123">
<ele>0.000000</ele>
<time>2015-04-06T08:55:12.000Z</time>
</trkpt>
<trkpt lat="33.2658505" lon="35.7332463">
<ele>0.000000</ele>
<time>2015-04-06T08:55:21.000Z</time>
</trkpt>
<trkpt lat="33.2658822" lon="35.7331297">
<ele>0.000000</ele>
<time>2015-04-06T08:55:27.000Z</time>
</trkpt>
<trkpt lat="33.2664907" lon="35.7325848">
<ele>0.000000</ele>
<time>2015-04-06T08:56:34.000Z</time>
</trkpt>
<trkpt lat="33.2669049" lon="35.7317239">
<ele>0.000000</ele>
<time>2015-04-06T08:57:25.000Z</time>
</trkpt>
<trkpt lat="33.2669656" lon="35.7314967">
<ele>0.000000</ele>
<time>2015-04-06T08:57:34.000Z</time>
</trkpt>
<trkpt lat="33.2675127" lon="35.7308130">
<ele>0.000000</ele>
<time>2015-04-06T08:58:31.000Z</time>
</trkpt>
<trkpt lat="33.2679034" lon="35.7301394">
<ele>0.000000</ele>
<time>2015-04-06T08:59:37.000Z</time>
</trkpt>
<trkpt lat="33.2681636" lon="35.7294925">
<ele>0.000000</ele>
<time>2015-04-06T09:00:24.000Z</time>
</trkpt>
<trkpt lat="33.2682989" lon="35.7293114">
<ele>0.000000</ele>
<time>2015-04-06T09:00:38.000Z</time>
</trkpt>
<trkpt lat="33.2684551" lon="35.7291964">
<ele>0.000000</ele>
<time>2015-04-06T09:00:45.000Z</time>
</trkpt>
<trkpt lat="33.2688490" lon="35.7286360">
<ele>0.000000</ele>
<time>2015-04-06T09:01:27.000Z</time>
</trkpt>
<trkpt lat="33.2689093" lon="35.7281468">
<ele>0.000000</ele>
<time>2015-04-06T09:02:07.000Z</time>
</trkpt>
<trkpt lat="33.2690036" lon="35.7279248">
<ele>0.000000</ele>
<time>2015-04-06T09:02:26.000Z</time>
</trkpt>
<trkpt lat="33.2690194" lon="35.7276703">
<ele>0.000000</ele>
<time>2015-04-06T09:02:46.000Z</time>
</trkpt>
<trkpt lat="33.2691605" lon="35.7274853">
<ele>0.000000</ele>
<time>2015-04-06T09:03:02.000Z</time>
</trkpt>
<trkpt lat="33.2695286" lon="35.7272813">
<ele>0.000000</ele>
<time>2015-04-06T09:03:33.000Z</time>
</trkpt>
<trkpt lat="33.2703371" lon="35.7273733">
<ele>0.000000</ele>
<time>2015-04-06T09:05:44.000Z</time>
</trkpt>
<trkpt lat="33.2708040" lon="35.7274667">
<ele>0.000000</ele>
<time>2015-04-06T09:06:33.000Z</time>
</trkpt>
<trkpt lat="33.2711695" lon="35.7276134">
<ele>0.000000</ele>
<time>2015-04-06T09:07:13.000Z</time>
</trkpt>
<trkpt lat="33.2718156" lon="35.7276550">
<ele>0.000000</ele>
<time>2015-04-06T09:08:59.000Z</time>
</trkpt>
<trkpt lat="33.2720615" lon="35.7277318">
<ele>0.000000</ele>
<time>2015-04-06T09:10:28.000Z</time>
</trkpt>
<trkpt lat="33.2721154" lon="35.7278038">
<ele>0.000000</ele>
<time>2015-04-06T09:13:05.000Z</time>
</trkpt>
<trkpt lat="33.2728537" lon="35.7281627">
<ele>0.000000</ele>
<time>2015-04-06T09:14:10.000Z</time>
</trkpt>
<trkpt lat="33.2735794" lon="35.7286329">
<ele>0.000000</ele>
<time>2015-04-06T09:16:08.000Z</time>
</trkpt>
<trkpt lat="33.2739583" lon="35.7286302">
<ele>0.000000</ele>
<time>2015-04-06T09:17:06.000Z</time>
</trkpt>
<trkpt lat="33.2744392" lon="35.7285546">
<ele>0.000000</ele>
<time>2015-04-06T09:18:22.000Z</time>
</trkpt>
<trkpt lat="33.2746276" lon="35.7285855">
<ele>0.000000</ele>
<time>2015-04-06T09:18:52.000Z</time>
</trkpt>
<trkpt lat="33.2751206" lon="35.7288586">
<ele>0.000000</ele>
<time>2015-04-06T09:20:59.000Z</time>
</trkpt>
<trkpt lat="33.2755325" lon="35.7293338">
<ele>0.000000</ele>
<time>2015-04-06T09:23:10.000Z</time>
</trkpt>
<trkpt lat="33.2765780" lon="35.7309300">
<ele>0.000000</ele>
<time>2015-04-06T09:29:22.000Z</time>
</trkpt>
<trkpt lat="33.2768773" lon="35.7312156">
<ele>0.000000</ele>
<time>2015-04-06T09:30:13.000Z</time>
</trkpt>
<trkpt lat="33.2775781" lon="35.7321150">
<ele>0.000000</ele>
<time>2015-04-06T09:38:18.000Z</time>
</trkpt>
<trkpt lat="33.2781707" lon="35.7333906">
<ele>0.000000</ele>
<time>2015-04-06T09:40:13.000Z</time>
</trkpt>
<trkpt lat="33.2792912" lon="35.7343641">
<ele>0.000000</ele>
<time>2015-04-06T09:41:24.000Z</time>
</trkpt>
<trkpt lat="33.2795040" lon="35.7346108">
<ele>0.000000</ele>
<time>2015-04-06T09:41:42.000Z</time>
</trkpt>
<trkpt lat="33.2798497" lon="35.7348293">
<ele>0.000000</ele>
<time>2015-04-06T09:42:16.000Z</time>
</trkpt>
<trkpt lat="33.2809186" lon="35.7352357">
<ele>0.000000</ele>
<time>2015-04-06T09:44:33.000Z</time>
</trkpt>
<trkpt lat="33.2819507" lon="35.7354854">
<ele>0.000000</ele>
<time>2015-04-06T09:47:33.000Z</time>
</trkpt>
<trkpt lat="33.2835122" lon="35.7362373">
<ele>0.000000</ele>
<time>2015-04-06T09:52:46.000Z</time>
</trkpt>
<trkpt lat="33.2839578" lon="35.7363012">
<ele>0.000000</ele>
<time>2015-04-06T09:55:28.000Z</time>
</trkpt>
<trkpt lat="33.2843243" lon="35.7364434">
<ele>0.000000</ele>
<time>2015-04-06T09:56:25.000Z</time>
</trkpt>
<trkpt lat="33.2849924" lon="35.7365421">
<ele>0.000000</ele>
<time>2015-04-06T09:58:18.000Z</time>
</trkpt>
<trkpt lat="33.2853562" lon="35.7366654">
<ele>0.000000</ele>
<time>2015-04-06T09:59:15.000Z</time>
</trkpt>
<trkpt lat="33.2864419" lon="35.7367742">
<ele>0.000000</ele>
<time>2015-04-06T10:01:07.000Z</time>
</trkpt>
<trkpt lat="33.2866269" lon="35.7367590">
<ele>0.000000</ele>
<time>2015-04-06T10:01:25.000Z</time>
</trkpt>
<trkpt lat="33.2868938" lon="35.7366358">
<ele>0.000000</ele>
<time>2015-04-06T10:01:55.000Z</time>
</trkpt>
<trkpt lat="33.2872941" lon="35.7368548">
<ele>0.000000</ele>
<time>2015-04-06T10:02:38.000Z</time>
</trkpt>
<trkpt lat="33.2876201" lon="35.7371560">
<ele>0.000000</ele>
<time>2015-04-06T10:02:48.000Z</time>
</trkpt>
<trkpt lat="33.2877150" lon="35.7373999">
<ele>0.000000</ele>
<time>2015-04-06T10:02:54.000Z</time>
</trkpt>
<trkpt lat="33.2877927" lon="35.7380848">
<ele>0.000000</ele>
<time>2015-04-06T10:03:06.000Z</time>
</trkpt>
<trkpt lat="33.2880208" lon="35.7385557">
<ele>0.000000</ele>
<time>2015-04-06T10:03:17.000Z</time>
</trkpt>
<trkpt lat="33.2885360" lon="35.7393078">
<ele>0.000000</ele>
<time>2015-04-06T10:03:33.000Z</time>
</trkpt>
<trkpt lat="33.2887564" lon="35.7410109">
<ele>0.000000</ele>
<time>2015-04-06T10:05:16.000Z</time>
</trkpt>
<trkpt lat="33.2885704" lon="35.7426360">
<ele>0.000000</ele>
<time>2015-04-06T10:07:07.000Z</time>
</trkpt>
<trkpt lat="33.2886281" lon="35.7442740">
<ele>0.000000</ele>
<time>2015-04-06T10:08:33.000Z</time>
</trkpt>
<trkpt lat="33.2885894" lon="35.7450778">
<ele>0.000000</ele>
<time>2015-04-06T10:09:40.000Z</time>
</trkpt>
<trkpt lat="33.2886326" lon="35.7456029">
<ele>0.000000</ele>
<time>2015-04-06T10:11:31.000Z</time>
</trkpt>
<trkpt lat="33.2885360" lon="35.7457927">
<ele>0.000000</ele>
<time>2015-04-06T10:11:48.000Z</time>
</trkpt>
<trkpt lat="33.2885232" lon="35.7460192">
<ele>0.000000</ele>
<time>2015-04-06T10:12:07.000Z</time>
</trkpt>
<trkpt lat="33.2885533" lon="35.7462491">
<ele>0.000000</ele>
<time>2015-04-06T10:12:22.000Z</time>
</trkpt>
<trkpt lat="33.2887865" lon="35.7469305">
<ele>0.000000</ele>
<time>2015-04-06T10:12:46.000Z</time>
</trkpt>
<trkpt lat="33.2886478" lon="35.7481784">
<ele>0.000000</ele>
<time>2015-04-06T10:14:22.000Z</time>
</trkpt>
<trkpt lat="33.2887837" lon="35.7493770">
<ele>0.000000</ele>
<time>2015-04-06T10:15:05.000Z</time>
</trkpt>
<trkpt lat="33.2887828" lon="35.7503171">
<ele>0.000000</ele>
<time>2015-04-06T10:16:54.000Z</time>
</trkpt>
<trkpt lat="33.2888737" lon="35.7502455">
<ele>0.000000</ele>
<time>2015-04-06T10:19:35.000Z</time>
</trkpt>
<trkpt lat="33.2889699" lon="35.7502936">
<ele>0.000000</ele>
<time>2015-04-06T10:19:40.000Z</time>
</trkpt>
<trkpt lat="33.2894197" lon="35.7509002">
<ele>0.000000</ele>
<time>2015-04-06T10:20:09.000Z</time>
</trkpt>
<trkpt lat="33.2904387" lon="35.7516183">
<ele>0.000000</ele>
<time>2015-04-06T10:20:52.000Z</time>
</trkpt>
<trkpt lat="33.2906161" lon="35.7519394">
<ele>0.000000</ele>
<time>2015-04-06T10:21:04.000Z</time>
</trkpt>
<trkpt lat="33.2906741" lon="35.7522997">
<ele>0.000000</ele>
<time>2015-04-06T10:21:30.000Z</time>
</trkpt>
<trkpt lat="33.2909802" lon="35.7532784">
<ele>0.000000</ele>
<time>2015-04-06T10:22:34.000Z</time>
</trkpt>
<trkpt lat="33.2910175" lon="35.7535375">
<ele>0.000000</ele>
<time>2015-04-06T10:22:44.000Z</time>
</trkpt>
<trkpt lat="33.2912843" lon="35.7541669">
<ele>0.000000</ele>
<time>2015-04-06T10:23:14.000Z</time>
</trkpt>
<trkpt lat="33.2912776" lon="35.7545181">
<ele>0.000000</ele>
<time>2015-04-06T10:23:29.000Z</time>
</trkpt>
<trkpt lat="33.2910576" lon="35.7551985">
<ele>0.000000</ele>
<time>2015-04-06T10:24:07.000Z</time>
</trkpt>
<trkpt lat="33.2910412" lon="35.7555263">
<ele>0.000000</ele>
<time>2015-04-06T10:25:02.000Z</time>
</trkpt>
<trkpt lat="33.2909615" lon="35.7558385">
<ele>0.000000</ele>
<time>2015-04-06T10:25:48.000Z</time>
</trkpt>
<trkpt lat="33.2910020" lon="35.7561675">
<ele>0.000000</ele>
<time>2015-04-06T10:26:43.000Z</time>
</trkpt>
<trkpt lat="33.2912760" lon="35.7568662">
<ele>0.000000</ele>
<time>2015-04-06T10:28:51.000Z</time>
</trkpt>
<trkpt lat="33.2911870" lon="35.7569124">
<ele>0.000000</ele>
<time>2015-04-06T10:29:07.000Z</time>
</trkpt>
<trkpt lat="33.2911641" lon="35.7570264">
<ele>0.000000</ele>
<time>2015-04-06T10:29:21.000Z</time>
</trkpt>
<trkpt lat="33.2912511" lon="35.7574334">
<ele>0.000000</ele>
<time>2015-04-06T10:30:41.000Z</time>
</trkpt>
<trkpt lat="33.2912508" lon="35.7577756">
<ele>0.000000</ele>
<time>2015-04-06T10:31:40.000Z</time>
</trkpt>
<trkpt lat="33.2912096" lon="35.7578795">
<ele>0.000000</ele>
<time>2015-04-06T10:31:57.000Z</time>
</trkpt>
<trkpt lat="33.2910623" lon="35.7580239">
<ele>0.000000</ele>
<time>2015-04-06T10:32:25.000Z</time>
</trkpt>
<trkpt lat="33.2907599" lon="35.7581279">
<ele>0.000000</ele>
<time>2015-04-06T10:36:32.000Z</time>
</trkpt>
<trkpt lat="33.2904967" lon="35.7580811">
<ele>0.000000</ele>
<time>2015-04-06T10:37:46.000Z</time>
</trkpt>
<trkpt lat="33.2904497" lon="35.7581644">
<ele>0.000000</ele>
<time>2015-04-06T10:38:02.000Z</time>
</trkpt>
<trkpt lat="33.2904800" lon="35.7583934">
<ele>0.000000</ele>
<time>2015-04-06T10:40:26.000Z</time>
</trkpt>
<trkpt lat="33.2909689" lon="35.7594210">
<ele>0.000000</ele>
<time>2015-04-06T10:41:12.000Z</time>
</trkpt>
<trkpt lat="33.2909654" lon="35.7596546">
<ele>0.000000</ele>
<time>2015-04-06T10:41:26.000Z</time>
</trkpt>
<trkpt lat="33.2910510" lon="35.7598599">
<ele>0.000000</ele>
<time>2015-04-06T10:41:41.000Z</time>
</trkpt>
<trkpt lat="33.2913870" lon="35.7600943">
<ele>0.000000</ele>
<time>2015-04-06T10:42:06.000Z</time>
</trkpt>
<trkpt lat="33.2916853" lon="35.7600492">
<ele>0.000000</ele>
<time>2015-04-06T10:42:21.000Z</time>
</trkpt>
<trkpt lat="33.2919272" lon="35.7598418">
<ele>0.000000</ele>
<time>2015-04-06T10:42:30.000Z</time>
</trkpt>
<trkpt lat="33.2920022" lon="35.7592906">
<ele>0.000000</ele>
<time>2015-04-06T10:42:42.000Z</time>
</trkpt>
<trkpt lat="33.2920043" lon="35.7588972">
<ele>0.000000</ele>
<time>2015-04-06T10:42:51.000Z</time>
</trkpt>
<trkpt lat="33.2919060" lon="35.7578748">
<ele>0.000000</ele>
<time>2015-04-06T10:43:18.000Z</time>
</trkpt>
<trkpt lat="33.2920065" lon="35.7575746">
<ele>0.000000</ele>
<time>2015-04-06T10:43:32.000Z</time>
</trkpt>
<trkpt lat="33.2921856" lon="35.7574755">
<ele>0.000000</ele>
<time>2015-04-06T10:43:43.000Z</time>
</trkpt>
<trkpt lat="33.2926561" lon="35.7574750">
<ele>0.000000</ele>
<time>2015-04-06T10:44:16.000Z</time>
</trkpt>
<trkpt lat="33.2929368" lon="35.7575501">
<ele>0.000000</ele>
<time>2015-04-06T10:44:35.000Z</time>
</trkpt>
<trkpt lat="33.2931040" lon="35.7576909">
<ele>0.000000</ele>
<time>2015-04-06T10:44:47.000Z</time>
</trkpt>
<trkpt lat="33.2935154" lon="35.7582277">
<ele>0.000000</ele>
<time>2015-04-06T10:45:21.000Z</time>
</trkpt>
<trkpt lat="33.2936571" lon="35.7585704">
<ele>0.000000</ele>
<time>2015-04-06T10:45:39.000Z</time>
</trkpt>
<trkpt lat="33.2937521" lon="35.7590323">
<ele>0.000000</ele>
<time>2015-04-06T10:46:01.000Z</time>
</trkpt>
<trkpt lat="33.2942734" lon="35.7601668">
<ele>0.000000</ele>
<time>2015-04-06T10:47:08.000Z</time>
</trkpt>
<trkpt lat="33.2950740" lon="35.7613138">
<ele>0.000000</ele>
<time>2015-04-06T10:48:39.000Z</time>
</trkpt>
<trkpt lat="33.2953700" lon="35.7618946">
<ele>0.000000</ele>
<time>2015-04-06T10:49:26.000Z</time>
</trkpt>
<trkpt lat="33.2958386" lon="35.7624681">
<ele>0.000000</ele>
<time>2015-04-06T10:50:19.000Z</time>
</trkpt>
<trkpt lat="33.2964939" lon="35.7629781">
<ele>0.000000</ele>
<time>2015-04-06T10:51:11.000Z</time>
</trkpt>
<trkpt lat="33.2971577" lon="35.7632252">
<ele>0.000000</ele>
<time>2015-04-06T10:52:04.000Z</time>
</trkpt>
<trkpt lat="33.2978444" lon="35.7631310">
<ele>0.000000</ele>
<time>2015-04-06T10:53:01.000Z</time>
</trkpt>
<trkpt lat="33.2982199" lon="35.7630156">
<ele>0.000000</ele>
<time>2015-04-06T10:53:34.000Z</time>
</trkpt>
<trkpt lat="33.2982842" lon="35.7629227">
<ele>0.000000</ele>
<time>2015-04-06T10:54:21.000Z</time>
</trkpt>
<trkpt lat="33.2983771" lon="35.7629668">
<ele>0.000000</ele>
<time>2015-04-06T10:54:28.000Z</time>
</trkpt>
<trkpt lat="33.2989384" lon="35.7629711">
<ele>0.000000</ele>
<time>2015-04-06T10:55:12.000Z</time>
</trkpt>
<trkpt lat="33.2992083" lon="35.7631108">
<ele>0.000000</ele>
<time>2015-04-06T10:55:37.000Z</time>
</trkpt>
<trkpt lat="33.2995373" lon="35.7635356">
<ele>0.000000</ele>
<time>2015-04-06T10:56:18.000Z</time>
</trkpt>
<trkpt lat="33.2997384" lon="35.7639005">
<ele>0.000000</ele>
<time>2015-04-06T10:56:50.000Z</time>
</trkpt>
<trkpt lat="33.2999460" lon="35.7644253">
<ele>0.000000</ele>
<time>2015-04-06T10:57:28.000Z</time>
</trkpt>
<trkpt lat="33.3003271" lon="35.7656332">
<ele>0.000000</ele>
<time>2015-04-06T10:58:51.000Z</time>
</trkpt>
<trkpt lat="33.3005299" lon="35.7668108">
<ele>0.000000</ele>
<time>2015-04-06T10:59:58.000Z</time>
</trkpt>
<trkpt lat="33.3006798" lon="35.7669466">
<ele>0.000000</ele>
<time>2015-04-06T11:00:08.000Z</time>
</trkpt>
<trkpt lat="33.3009744" lon="35.7670255">
<ele>0.000000</ele>
<time>2015-04-06T11:00:28.000Z</time>
</trkpt>
<trkpt lat="33.3026568" lon="35.7671767">
<ele>0.000000</ele>
<time>2015-04-06T11:02:27.000Z</time>
</trkpt>
<trkpt lat="33.3028642" lon="35.7671943">
<ele>0.000000</ele>
<time>2015-04-06T11:02:40.000Z</time>
</trkpt>
<trkpt lat="33.3030548" lon="35.7672717">
<ele>0.000000</ele>
<time>2015-04-06T11:02:54.000Z</time>
</trkpt>
<trkpt lat="33.3034539" lon="35.7676008">
<ele>0.000000</ele>
<time>2015-04-06T11:03:33.000Z</time>
</trkpt>
<trkpt lat="33.3036570" lon="35.7678550">
<ele>0.000000</ele>
<time>2015-04-06T11:03:58.000Z</time>
</trkpt>
<trkpt lat="33.3039066" lon="35.7681973">
<ele>0.000000</ele>
<time>2015-04-06T11:04:30.000Z</time>
</trkpt>
<trkpt lat="33.3040618" lon="35.7686347">
<ele>0.000000</ele>
<time>2015-04-06T11:05:02.000Z</time>
</trkpt>
<trkpt lat="33.3043353" lon="35.7691317">
<ele>0.000000</ele>
<time>2015-04-06T11:05:38.000Z</time>
</trkpt>
<trkpt lat="33.3049535" lon="35.7699989">
<ele>0.000000</ele>
<time>2015-04-06T11:06:21.000Z</time>
</trkpt>
<trkpt lat="33.3055024" lon="35.7706749">
<ele>0.000000</ele>
<time>2015-04-06T11:06:40.000Z</time>
</trkpt>
<trkpt lat="33.3061617" lon="35.7713249">
<ele>0.000000</ele>
<time>2015-04-06T11:07:08.000Z</time>
</trkpt>
<trkpt lat="33.3069259" lon="35.7719177">
<ele>0.000000</ele>
<time>2015-04-06T11:07:36.000Z</time>
</trkpt>
<trkpt lat="33.3073441" lon="35.7721149">
<ele>0.000000</ele>
<time>2015-04-06T11:07:52.000Z</time>
</trkpt>
<trkpt lat="33.3079576" lon="35.7722965">
<ele>0.000000</ele>
<time>2015-04-06T11:09:48.000Z</time>
</trkpt>
<trkpt lat="33.3077850" lon="35.7721683">
<ele>0.000000</ele>
<time>2015-04-06T11:40:57.000Z</time>
</trkpt>
<trkpt lat="33.3074028" lon="35.7720582">
<ele>0.000000</ele>
<time>2015-04-06T11:41:45.000Z</time>
</trkpt>
<trkpt lat="33.3064539" lon="35.7715178">
<ele>0.000000</ele>
<time>2015-04-06T11:42:06.000Z</time>
</trkpt>
<trkpt lat="33.3060902" lon="35.7711752">
<ele>0.000000</ele>
<time>2015-04-06T11:42:14.000Z</time>
</trkpt>
<trkpt lat="33.3050018" lon="35.7699864">
<ele>0.000000</ele>
<time>2015-04-06T11:42:34.000Z</time>
</trkpt>
<trkpt lat="33.3042335" lon="35.7688079">
<ele>0.000000</ele>
<time>2015-04-06T11:42:54.000Z</time>
</trkpt>
<trkpt lat="33.3038745" lon="35.7680092">
<ele>0.000000</ele>
<time>2015-04-06T11:43:03.000Z</time>
</trkpt>
<trkpt lat="33.3036795" lon="35.7677443">
<ele>0.000000</ele>
<time>2015-04-06T11:43:06.000Z</time>
</trkpt>
<trkpt lat="33.3031874" lon="35.7672816">
<ele>0.000000</ele>
<time>2015-04-06T11:43:12.000Z</time>
</trkpt>
<trkpt lat="33.3030250" lon="35.7671828">
<ele>0.000000</ele>
<time>2015-04-06T11:43:14.000Z</time>
</trkpt>
<trkpt lat="33.3027431" lon="35.7671135">
<ele>0.000000</ele>
<time>2015-04-06T11:43:17.000Z</time>
</trkpt>
<trkpt lat="33.3010872" lon="35.7670081">
<ele>0.000000</ele>
<time>2015-04-06T11:43:33.000Z</time>
</trkpt>
<trkpt lat="33.3007040" lon="35.7668895">
<ele>0.000000</ele>
<time>2015-04-06T11:43:37.000Z</time>
</trkpt>
<trkpt lat="33.3005601" lon="35.7667693">
<ele>0.000000</ele>
<time>2015-04-06T11:43:39.000Z</time>
</trkpt>
<trkpt lat="33.3004789" lon="35.7665944">
<ele>0.000000</ele>
<time>2015-04-06T11:43:41.000Z</time>
</trkpt>
<trkpt lat="33.3003782" lon="35.7657037">
<ele>0.000000</ele>
<time>2015-04-06T11:43:49.000Z</time>
</trkpt>
<trkpt lat="33.3000164" lon="35.7644622">
<ele>0.000000</ele>
<time>2015-04-06T11:43:59.000Z</time>
</trkpt>
<trkpt lat="33.2996876" lon="35.7636413">
<ele>0.000000</ele>
<time>2015-04-06T11:44:05.000Z</time>
</trkpt>
<trkpt lat="33.2994502" lon="35.7632794">
<ele>0.000000</ele>
<time>2015-04-06T11:44:08.000Z</time>
</trkpt>
<trkpt lat="33.2991920" lon="35.7630213">
<ele>0.000000</ele>
<time>2015-04-06T11:44:11.000Z</time>
</trkpt>
<trkpt lat="33.2990000" lon="35.7629252">
<ele>0.000000</ele>
<time>2015-04-06T11:44:13.000Z</time>
</trkpt>
<trkpt lat="33.2985345" lon="35.7628869">
<ele>0.000000</ele>
<time>2015-04-06T11:44:17.000Z</time>
</trkpt>
<trkpt lat="33.2978355" lon="35.7630891">
<ele>0.000000</ele>
<time>2015-04-06T11:44:23.000Z</time>
</trkpt>
<trkpt lat="33.2971229" lon="35.7631715">
<ele>0.000000</ele>
<time>2015-04-06T11:44:29.000Z</time>
</trkpt>
<trkpt lat="33.2965075" lon="35.7629477">
<ele>0.000000</ele>
<time>2015-04-06T11:44:34.000Z</time>
</trkpt>
<trkpt lat="33.2959147" lon="35.7624950">
<ele>0.000000</ele>
<time>2015-04-06T11:44:39.000Z</time>
</trkpt>
<trkpt lat="33.2956267" lon="35.7621901">
<ele>0.000000</ele>
<time>2015-04-06T11:44:42.000Z</time>
</trkpt>
<trkpt lat="33.2950652" lon="35.7612616">
<ele>0.000000</ele>
<time>2015-04-06T11:44:49.000Z</time>
</trkpt>
<trkpt lat="33.2945025" lon="35.7604726">
<ele>0.000000</ele>
<time>2015-04-06T11:44:55.000Z</time>
</trkpt>
<trkpt lat="33.2939643" lon="35.7594485">
<ele>0.000000</ele>
<time>2015-04-06T11:45:02.000Z</time>
</trkpt>
<trkpt lat="33.2935406" lon="35.7581432">
<ele>0.000000</ele>
<time>2015-04-06T11:45:11.000Z</time>
</trkpt>
<trkpt lat="33.2933301" lon="35.7578393">
<ele>0.000000</ele>
<time>2015-04-06T11:45:14.000Z</time>
</trkpt>
<trkpt lat="33.2929999" lon="35.7575322">
<ele>0.000000</ele>
<time>2015-04-06T11:45:18.000Z</time>
</trkpt>
<trkpt lat="33.2928275" lon="35.7574427">
<ele>0.000000</ele>
<time>2015-04-06T11:45:20.000Z</time>
</trkpt>
<trkpt lat="33.2925476" lon="35.7574100">
<ele>0.000000</ele>
<time>2015-04-06T11:45:23.000Z</time>
</trkpt>
<trkpt lat="33.2922479" lon="35.7574340">
<ele>0.000000</ele>
<time>2015-04-06T11:45:26.000Z</time>
</trkpt>
<trkpt lat="33.2919551" lon="35.7575666">
<ele>0.000000</ele>
<time>2015-04-06T11:45:30.000Z</time>
</trkpt>
<trkpt lat="33.2918613" lon="35.7578829">
<ele>0.000000</ele>
<time>2015-04-06T11:45:34.000Z</time>
</trkpt>
<trkpt lat="33.2919568" lon="35.7587502">
<ele>0.000000</ele>
<time>2015-04-06T11:45:42.000Z</time>
</trkpt>
<trkpt lat="33.2919521" lon="35.7595473">
<ele>0.000000</ele>
<time>2015-04-06T11:45:49.000Z</time>
</trkpt>
<trkpt lat="33.2918867" lon="35.7598450">
<ele>0.000000</ele>
<time>2015-04-06T11:45:52.000Z</time>
</trkpt>
<trkpt lat="33.2917793" lon="35.7599785">
<ele>0.000000</ele>
<time>2015-04-06T11:45:54.000Z</time>
</trkpt>
<trkpt lat="33.2914856" lon="35.7600552">
<ele>0.000000</ele>
<time>2015-04-06T11:45:58.000Z</time>
</trkpt>
<trkpt lat="33.2908941" lon="35.7600160">
<ele>0.000000</ele>
<time>2015-04-06T11:46:08.000Z</time>
</trkpt>
<trkpt lat="33.2904449" lon="35.7598920">
<ele>0.000000</ele>
<time>2015-04-06T11:46:19.000Z</time>
</trkpt>
<trkpt lat="33.2902619" lon="35.7597620">
<ele>0.000000</ele>
<time>2015-04-06T11:46:23.000Z</time>
</trkpt>
<trkpt lat="33.2901167" lon="35.7595249">
<ele>0.000000</ele>
<time>2015-04-06T11:46:27.000Z</time>
</trkpt>
<trkpt lat="33.2899012" lon="35.7587540">
<ele>0.000000</ele>
<time>2015-04-06T11:46:41.000Z</time>
</trkpt>
<trkpt lat="33.2898929" lon="35.7585942">
<ele>0.000000</ele>
<time>2015-04-06T11:46:44.000Z</time>
</trkpt>
<trkpt lat="33.2899509" lon="35.7583107">
<ele>0.000000</ele>
<time>2015-04-06T11:46:50.000Z</time>
</trkpt>
<trkpt lat="33.2902734" lon="35.7578196">
<ele>0.000000</ele>
<time>2015-04-06T11:47:08.000Z</time>
</trkpt>
<trkpt lat="33.2903379" lon="35.7575487">
<ele>0.000000</ele>
<time>2015-04-06T11:47:16.000Z</time>
</trkpt>
<trkpt lat="33.2901687" lon="35.7564868">
<ele>0.000000</ele>
<time>2015-04-06T11:47:43.000Z</time>
</trkpt>
<trkpt lat="33.2898622" lon="35.7549574">
<ele>0.000000</ele>
<time>2015-04-06T11:48:14.000Z</time>
</trkpt>
<trkpt lat="33.2897088" lon="35.7544983">
<ele>0.000000</ele>
<time>2015-04-06T11:48:22.000Z</time>
</trkpt>
<trkpt lat="33.2894478" lon="35.7540421">
<ele>0.000000</ele>
<time>2015-04-06T11:48:30.000Z</time>
</trkpt>
<trkpt lat="33.2890563" lon="35.7537138">
<ele>0.000000</ele>
<time>2015-04-06T11:48:38.000Z</time>
</trkpt>
<trkpt lat="33.2884119" lon="35.7533660">
<ele>0.000000</ele>
<time>2015-04-06T11:48:50.000Z</time>
</trkpt>
<trkpt lat="33.2879926" lon="35.7533345">
<ele>0.000000</ele>
<time>2015-04-06T11:48:56.000Z</time>
</trkpt>
<trkpt lat="33.2874183" lon="35.7534298">
<ele>0.000000</ele>
<time>2015-04-06T11:49:04.000Z</time>
</trkpt>
<trkpt lat="33.2871012" lon="35.7535817">
<ele>0.000000</ele>
<time>2015-04-06T11:49:15.000Z</time>
</trkpt>
<trkpt lat="33.2864698" lon="35.7540860">
<ele>0.000000</ele>
<time>2015-04-06T11:49:28.000Z</time>
</trkpt>
<trkpt lat="33.2863079" lon="35.7541556">
<ele>0.000000</ele>
<time>2015-04-06T11:49:30.000Z</time>
</trkpt>
<trkpt lat="33.2856108" lon="35.7541915">
<ele>0.000000</ele>
<time>2015-04-06T11:49:38.000Z</time>
</trkpt>
<trkpt lat="33.2853044" lon="35.7542779">
<ele>0.000000</ele>
<time>2015-04-06T11:49:42.000Z</time>
</trkpt>
<trkpt lat="33.2849316" lon="35.7545698">
<ele>0.000000</ele>
<time>2015-04-06T11:49:48.000Z</time>
</trkpt>
<trkpt lat="33.2844557" lon="35.7552906">
<ele>0.000000</ele>
<time>2015-04-06T11:49:58.000Z</time>
</trkpt>
<trkpt lat="33.2840931" lon="35.7556619">
<ele>0.000000</ele>
<time>2015-04-06T11:50:04.000Z</time>
</trkpt>
<trkpt lat="33.2840200" lon="35.7557925">
<ele>0.000000</ele>
<time>2015-04-06T11:50:06.000Z</time>
</trkpt>
<trkpt lat="33.2840117" lon="35.7560965">
<ele>0.000000</ele>
<time>2015-04-06T11:50:10.000Z</time>
</trkpt>
<trkpt lat="33.2841950" lon="35.7568330">
<ele>0.000000</ele>
<time>2015-04-06T11:50:18.000Z</time>
</trkpt>
<trkpt lat="33.2845607" lon="35.7587747">
<ele>0.000000</ele>
<time>2015-04-06T11:50:34.000Z</time>
</trkpt>
<trkpt lat="33.2847326" lon="35.7606495">
<ele>0.000000</ele>
<time>2015-04-06T11:50:50.000Z</time>
</trkpt>
<trkpt lat="33.2850907" lon="35.7614600">
<ele>0.000000</ele>
<time>2015-04-06T11:50:58.000Z</time>
</trkpt>
<trkpt lat="33.2851221" lon="35.7616467">
<ele>0.000000</ele>
<time>2015-04-06T11:51:00.000Z</time>
</trkpt>
<trkpt lat="33.2850837" lon="35.7622550">
<ele>0.000000</ele>
<time>2015-04-06T11:51:08.000Z</time>
</trkpt>
<trkpt lat="33.2850124" lon="35.7623580">
<ele>0.000000</ele>
<time>2015-04-06T11:51:10.000Z</time>
</trkpt>
<trkpt lat="33.2848977" lon="35.7624013">
<ele>0.000000</ele>
<time>2015-04-06T11:51:12.000Z</time>
</trkpt>
<trkpt lat="33.2846520" lon="35.7623100">
<ele>0.000000</ele>
<time>2015-04-06T11:51:16.000Z</time>
</trkpt>
<trkpt lat="33.2842526" lon="35.7620403">
<ele>0.000000</ele>
<time>2015-04-06T11:51:22.000Z</time>
</trkpt>
<trkpt lat="33.2805993" lon="35.7594926">
<ele>0.000000</ele>
<time>2015-04-06T11:52:06.000Z</time>
</trkpt>
<trkpt lat="33.2799720" lon="35.7591384">
<ele>0.000000</ele>
<time>2015-04-06T11:52:20.000Z</time>
</trkpt>
<trkpt lat="33.2795648" lon="35.7589976">
<ele>0.000000</ele>
<time>2015-04-06T11:52:50.000Z</time>
</trkpt>
<trkpt lat="33.2790825" lon="35.7584374">
<ele>0.000000</ele>
<time>2015-04-06T11:52:58.000Z</time>
</trkpt>
<trkpt lat="33.2780453" lon="35.7575134">
<ele>0.000000</ele>
<time>2015-04-06T11:53:10.000Z</time>
</trkpt>
<trkpt lat="33.2770133" lon="35.7568471">
<ele>0.000000</ele>
<time>2015-04-06T11:53:20.000Z</time>
</trkpt>
<trkpt lat="33.2766989" lon="35.7567343">
<ele>0.000000</ele>
<time>2015-04-06T11:53:23.000Z</time>
</trkpt>
<trkpt lat="33.2763939" lon="35.7566972">
<ele>0.000000</ele>
<time>2015-04-06T11:53:26.000Z</time>
</trkpt>
<trkpt lat="33.2751010" lon="35.7569906">
<ele>0.000000</ele>
<time>2015-04-06T11:53:39.000Z</time>
</trkpt>
<trkpt lat="33.2748028" lon="35.7571206">
<ele>0.000000</ele>
<time>2015-04-06T11:53:42.000Z</time>
</trkpt>
<trkpt lat="33.2741714" lon="35.7576953">
<ele>0.000000</ele>
<time>2015-04-06T11:53:50.000Z</time>
</trkpt>
<trkpt lat="33.2739019" lon="35.7578049">
<ele>0.000000</ele>
<time>2015-04-06T11:53:53.000Z</time>
</trkpt>
<trkpt lat="33.2736049" lon="35.7577174">
<ele>0.000000</ele>
<time>2015-04-06T11:53:56.000Z</time>
</trkpt>
<trkpt lat="33.2731915" lon="35.7573513">
<ele>0.000000</ele>
<time>2015-04-06T11:54:01.000Z</time>
</trkpt>
<trkpt lat="33.2716585" lon="35.7570837">
<ele>0.000000</ele>
<time>2015-04-06T11:54:15.000Z</time>
</trkpt>
<trkpt lat="33.2713313" lon="35.7569660">
<ele>0.000000</ele>
<time>2015-04-06T11:54:18.000Z</time>
</trkpt>
<trkpt lat="33.2710474" lon="35.7567912">
<ele>0.000000</ele>
<time>2015-04-06T11:54:21.000Z</time>
</trkpt>
<trkpt lat="33.2708467" lon="35.7565626">
<ele>0.000000</ele>
<time>2015-04-06T11:54:24.000Z</time>
</trkpt>
<trkpt lat="33.2707607" lon="35.7563591">
<ele>0.000000</ele>
<time>2015-04-06T11:54:26.000Z</time>
</trkpt>
<trkpt lat="33.2706749" lon="35.7556056">
<ele>0.000000</ele>
<time>2015-04-06T11:54:32.000Z</time>
</trkpt>
<trkpt lat="33.2705996" lon="35.7553637">
<ele>0.000000</ele>
<time>2015-04-06T11:54:34.000Z</time>
</trkpt>
<trkpt lat="33.2703116" lon="35.7549687">
<ele>0.000000</ele>
<time>2015-04-06T11:54:38.000Z</time>
</trkpt>
<trkpt lat="33.2698731" lon="35.7546723">
<ele>0.000000</ele>
<time>2015-04-06T11:54:43.000Z</time>
</trkpt>
<trkpt lat="33.2696102" lon="35.7546085">
<ele>0.000000</ele>
<time>2015-04-06T11:54:46.000Z</time>
</trkpt>
<trkpt lat="33.2691909" lon="35.7547524">
<ele>0.000000</ele>
<time>2015-04-06T11:54:51.000Z</time>
</trkpt>
<trkpt lat="33.2690313" lon="35.7547608">
<ele>0.000000</ele>
<time>2015-04-06T11:54:53.000Z</time>
</trkpt>
<trkpt lat="33.2688762" lon="35.7547046">
<ele>0.000000</ele>
<time>2015-04-06T11:54:55.000Z</time>
</trkpt>
<trkpt lat="33.2685051" lon="35.7542433">
<ele>0.000000</ele>
<time>2015-04-06T11:55:01.000Z</time>
</trkpt>
<trkpt lat="33.2683729" lon="35.7542002">
<ele>0.000000</ele>
<time>2015-04-06T11:55:03.000Z</time>
</trkpt>
<trkpt lat="33.2682307" lon="35.7542518">
<ele>0.000000</ele>
<time>2015-04-06T11:55:05.000Z</time>
</trkpt>
<trkpt lat="33.2675660" lon="35.7546812">
<ele>0.000000</ele>
<time>2015-04-06T11:55:13.000Z</time>
</trkpt>
<trkpt lat="33.2669084" lon="35.7549153">
<ele>0.000000</ele>
<time>2015-04-06T11:55:19.000Z</time>
</trkpt>
<trkpt lat="33.2664236" lon="35.7549882">
<ele>0.000000</ele>
<time>2015-04-06T11:55:23.000Z</time>
</trkpt>
<trkpt lat="33.2656116" lon="35.7549731">
<ele>0.000000</ele>
<time>2015-04-06T11:55:30.000Z</time>
</trkpt>
<trkpt lat="33.2654605" lon="35.7550187">
<ele>0.000000</ele>
<time>2015-04-06T11:55:32.000Z</time>
</trkpt>
<trkpt lat="33.2653579" lon="35.7551131">
<ele>0.000000</ele>
<time>2015-04-06T11:55:34.000Z</time>
</trkpt>
<trkpt lat="33.2653290" lon="35.7552717">
<ele>0.000000</ele>
<time>2015-04-06T11:55:36.000Z</time>
</trkpt>
<trkpt lat="33.2655145" lon="35.7560375">
<ele>0.000000</ele>
<time>2015-04-06T11:55:43.000Z</time>
</trkpt>
<trkpt lat="33.2655574" lon="35.7569056">
<ele>0.000000</ele>
<time>2015-04-06T11:55:50.000Z</time>
</trkpt>
<trkpt lat="33.2658510" lon="35.7576230">
<ele>0.000000</ele>
<time>2015-04-06T11:55:57.000Z</time>
</trkpt>
<trkpt lat="33.2663170" lon="35.7593825">
<ele>0.000000</ele>
<time>2015-04-06T11:56:22.000Z</time>
</trkpt>
<trkpt lat="33.2663240" lon="35.7596421">
<ele>0.000000</ele>
<time>2015-04-06T11:56:28.000Z</time>
</trkpt>
<trkpt lat="33.2661599" lon="35.7602003">
<ele>0.000000</ele>
<time>2015-04-06T11:56:36.000Z</time>
</trkpt>
<trkpt lat="33.2661390" lon="35.7606312">
<ele>0.000000</ele>
<time>2015-04-06T11:56:42.000Z</time>
</trkpt>
<trkpt lat="33.2665042" lon="35.7614412">
<ele>0.000000</ele>
<time>2015-04-06T11:56:52.000Z</time>
</trkpt>
<trkpt lat="33.2665879" lon="35.7623349">
<ele>0.000000</ele>
<time>2015-04-06T11:57:00.000Z</time>
</trkpt>
<trkpt lat="33.2668922" lon="35.7630469">
<ele>0.000000</ele>
<time>2015-04-06T11:57:09.000Z</time>
</trkpt>
<trkpt lat="33.2668570" lon="35.7631653">
<ele>0.000000</ele>
<time>2015-04-06T11:57:12.000Z</time>
</trkpt>
<trkpt lat="33.2667631" lon="35.7632306">
<ele>0.000000</ele>
<time>2015-04-06T11:57:15.000Z</time>
</trkpt>
<trkpt lat="33.2666464" lon="35.7632125">
<ele>0.000000</ele>
<time>2015-04-06T11:57:18.000Z</time>
</trkpt>
<trkpt lat="33.2656449" lon="35.7627778">
<ele>0.000000</ele>
<time>2015-04-06T11:57:46.000Z</time>
</trkpt>
<trkpt lat="33.2653980" lon="35.7625512">
<ele>0.000000</ele>
<time>2015-04-06T11:57:50.000Z</time>
</trkpt>
<trkpt lat="33.2651006" lon="35.7619294">
<ele>0.000000</ele>
<time>2015-04-06T11:57:58.000Z</time>
</trkpt>
<trkpt lat="33.2650104" lon="35.7618319">
<ele>0.000000</ele>
<time>2015-04-06T11:58:00.000Z</time>
</trkpt>
<trkpt lat="33.2647746" lon="35.7617837">
<ele>0.000000</ele>
<time>2015-04-06T11:58:04.000Z</time>
</trkpt>
<trkpt lat="33.2644200" lon="35.7619691">
<ele>0.000000</ele>
<time>2015-04-06T11:58:10.000Z</time>
</trkpt>
<trkpt lat="33.2643335" lon="35.7620995">
<ele>0.000000</ele>
<time>2015-04-06T11:58:12.000Z</time>
</trkpt>
<trkpt lat="33.2642372" lon="35.7623982">
<ele>0.000000</ele>
<time>2015-04-06T11:58:16.000Z</time>
</trkpt>
<trkpt lat="33.2642649" lon="35.7625627">
<ele>0.000000</ele>
<time>2015-04-06T11:58:18.000Z</time>
</trkpt>
<trkpt lat="33.2648385" lon="35.7636559">
<ele>0.000000</ele>
<time>2015-04-06T11:58:32.000Z</time>
</trkpt>
<trkpt lat="33.2648776" lon="35.7637743">
<ele>0.000000</ele>
<time>2015-04-06T11:58:34.000Z</time>
</trkpt>
<trkpt lat="33.2648560" lon="35.7638999">
<ele>0.000000</ele>
<time>2015-04-06T11:58:37.000Z</time>
</trkpt>
<trkpt lat="33.2647491" lon="35.7639250">
<ele>0.000000</ele>
<time>2015-04-06T11:58:40.000Z</time>
</trkpt>
<trkpt lat="33.2636753" lon="35.7625452">
<ele>0.000000</ele>
<time>2015-04-06T11:59:01.000Z</time>
</trkpt>
<trkpt lat="33.2628575" lon="35.7611267">
<ele>0.000000</ele>
<time>2015-04-06T11:59:13.000Z</time>
</trkpt>
<trkpt lat="33.2624255" lon="35.7601727">
<ele>0.000000</ele>
<time>2015-04-06T11:59:19.000Z</time>
</trkpt>
<trkpt lat="33.2621822" lon="35.7597874">
<ele>0.000000</ele>
<time>2015-04-06T11:59:22.000Z</time>
</trkpt>
<trkpt lat="33.2615582" lon="35.7590826">
<ele>0.000000</ele>
<time>2015-04-06T11:59:30.000Z</time>
</trkpt>
<trkpt lat="33.2605841" lon="35.7582920">
<ele>0.000000</ele>
<time>2015-04-06T11:59:42.000Z</time>
</trkpt>
<trkpt lat="33.2601365" lon="35.7579997">
<ele>0.000000</ele>
<time>2015-04-06T11:59:47.000Z</time>
</trkpt>
<trkpt lat="33.2596530" lon="35.7579455">
<ele>0.000000</ele>
<time>2015-04-06T11:59:52.000Z</time>
</trkpt>
<trkpt lat="33.2589136" lon="35.7580838">
<ele>0.000000</ele>
<time>2015-04-06T12:00:05.000Z</time>
</trkpt>
<trkpt lat="33.2583102" lon="35.7582810">
<ele>0.000000</ele>
<time>2015-04-06T12:00:23.000Z</time>
</trkpt>
<trkpt lat="33.2576988" lon="35.7586166">
<ele>0.000000</ele>
<time>2015-04-06T12:00:45.000Z</time>
</trkpt>
<trkpt lat="33.2574924" lon="35.7586554">
<ele>0.000000</ele>
<time>2015-04-06T12:00:55.000Z</time>
</trkpt>
<trkpt lat="33.2565072" lon="35.7584525">
<ele>0.000000</ele>
<time>2015-04-06T12:01:36.000Z</time>
</trkpt>
<trkpt lat="33.2556413" lon="35.7583659">
<ele>0.000000</ele>
<time>2015-04-06T12:02:12.000Z</time>
</trkpt>
<trkpt lat="33.2552114" lon="35.7580908">
<ele>0.000000</ele>
<time>2015-04-06T12:02:32.000Z</time>
</trkpt>
<trkpt lat="33.2549284" lon="35.7577287">
<ele>0.000000</ele>
<time>2015-04-06T12:02:48.000Z</time>
</trkpt>
<trkpt lat="33.2546785" lon="35.7575037">
<ele>0.000000</ele>
<time>2015-04-06T12:02:57.000Z</time>
</trkpt>
<trkpt lat="33.2544324" lon="35.7574462">
<ele>0.000000</ele>
<time>2015-04-06T12:03:03.000Z</time>
</trkpt>
<trkpt lat="33.2536037" lon="35.7574896">
<ele>0.000000</ele>
<time>2015-04-06T12:03:25.000Z</time>
</trkpt>
<trkpt lat="33.2533450" lon="35.7576702">
<ele>0.000000</ele>
<time>2015-04-06T12:03:40.000Z</time>
</trkpt>
<trkpt lat="33.2526495" lon="35.7591175">
<ele>0.000000</ele>
<time>2015-04-06T12:04:37.000Z</time>
</trkpt>
<trkpt lat="33.2525010" lon="35.7592676">
<ele>0.000000</ele>
<time>2015-04-06T12:04:45.000Z</time>
</trkpt>
<trkpt lat="33.2512935" lon="35.7587527">
<ele>0.000000</ele>
<time>2015-04-06T12:05:45.000Z</time>
</trkpt>
<trkpt lat="33.2510454" lon="35.7585879">
<ele>0.000000</ele>
<time>2015-04-06T12:06:06.000Z</time>
</trkpt>
<trkpt lat="33.2507597" lon="35.7582882">
<ele>0.000000</ele>
<time>2015-04-06T12:06:35.000Z</time>
</trkpt>
<trkpt lat="33.2504744" lon="35.7582120">
<ele>0.000000</ele>
<time>2015-04-06T12:06:57.000Z</time>
</trkpt>
<trkpt lat="33.2500792" lon="35.7580269">
<ele>0.000000</ele>
<time>2015-04-06T12:07:24.000Z</time>
</trkpt>
<trkpt lat="33.2494623" lon="35.7574444">
<ele>0.000000</ele>
<time>2015-04-06T12:08:41.000Z</time>
</trkpt>
<trkpt lat="33.2490517" lon="35.7572294">
<ele>0.000000</ele>
<time>2015-04-06T12:08:58.000Z</time>
</trkpt>
<trkpt lat="33.2486901" lon="35.7567422">
<ele>0.000000</ele>
<time>2015-04-06T12:09:17.000Z</time>
</trkpt>
<trkpt lat="33.2478183" lon="35.7560468">
<ele>0.000000</ele>
<time>2015-04-06T12:09:33.000Z</time>
</trkpt>
<trkpt lat="33.2468411" lon="35.7542640">
<ele>0.000000</ele>
<time>2015-04-06T12:10:17.000Z</time>
</trkpt>
<trkpt lat="33.2466885" lon="35.7537421">
<ele>0.000000</ele>
<time>2015-04-06T12:11:03.000Z</time>
</trkpt>
<trkpt lat="33.2463576" lon="35.7531691">
<ele>0.000000</ele>
<time>2015-04-06T12:11:43.000Z</time>
</trkpt>
<trkpt lat="33.2459626" lon="35.7527913">
<ele>0.000000</ele>
<time>2015-04-06T12:12:10.000Z</time>
</trkpt>
<trkpt lat="33.2452228" lon="35.7523756">
<ele>0.000000</ele>
<time>2015-04-06T12:12:43.000Z</time>
</trkpt>
<trkpt lat="33.2451338" lon="35.7523478">
<ele>0.000000</ele>
<time>2015-04-06T12:12:47.000Z</time>
</trkpt>
<trkpt lat="33.2448982" lon="35.7525284">
<ele>0.000000</ele>
<time>2015-04-06T12:14:38.000Z</time>
</trkpt>
<trkpt lat="33.2450871" lon="35.7523692">
<ele>0.000000</ele>
<time>2015-04-06T12:15:08.000Z</time>
</trkpt>
<trkpt lat="33.2451338" lon="35.7522430">
<ele>0.000000</ele>
<time>2015-04-06T12:15:20.000Z</time>
</trkpt>
<trkpt lat="33.2451027" lon="35.7521253">
<ele>0.000000</ele>
<time>2015-04-06T12:15:31.000Z</time>
</trkpt>
<trkpt lat="33.2449473" lon="35.7521206">
<ele>0.000000</ele>
<time>2015-04-06T12:18:03.000Z</time>
</trkpt>
<trkpt lat="33.2446322" lon="35.7520061">
<ele>0.000000</ele>
<time>2015-04-06T12:18:16.000Z</time>
</trkpt>
<trkpt lat="33.2436742" lon="35.7511476">
<ele>0.000000</ele>
<time>2015-04-06T12:18:50.000Z</time>
</trkpt>
<trkpt lat="33.2435689" lon="35.7510808">
<ele>0.000000</ele>
<time>2015-04-06T12:18:54.000Z</time>
</trkpt>
<trkpt lat="33.2431474" lon="35.7510190">
<ele>0.000000</ele>
<time>2015-04-06T12:19:11.000Z</time>
</trkpt>
<trkpt lat="33.2428162" lon="35.7506433">
<ele>0.000000</ele>
<time>2015-04-06T12:19:23.000Z</time>
</trkpt>
<trkpt lat="33.2424787" lon="35.7504020">
<ele>0.000000</ele>
<time>2015-04-06T12:19:31.000Z</time>
</trkpt>
<trkpt lat="33.2421302" lon="35.7498604">
<ele>0.000000</ele>
<time>2015-04-06T12:19:47.000Z</time>
</trkpt>
<trkpt lat="33.2417454" lon="35.7494414">
<ele>0.000000</ele>
<time>2015-04-06T12:19:59.000Z</time>
</trkpt>
<trkpt lat="33.2406681" lon="35.7478869">
<ele>0.000000</ele>
<time>2015-04-06T12:20:36.000Z</time>
</trkpt>
<trkpt lat="33.2402402" lon="35.7469918">
<ele>0.000000</ele>
<time>2015-04-06T12:20:52.000Z</time>
</trkpt>
<trkpt lat="33.2393753" lon="35.7454804">
<ele>0.000000</ele>
<time>2015-04-06T12:21:30.000Z</time>
</trkpt>
<trkpt lat="33.2384586" lon="35.7442429">
<ele>0.000000</ele>
<time>2015-04-06T12:22:10.000Z</time>
</trkpt>
<trkpt lat="33.2383708" lon="35.7441608">
<ele>0.000000</ele>
<time>2015-04-06T12:22:13.000Z</time>
</trkpt>
<trkpt lat="33.2381410" lon="35.7441336">
<ele>0.000000</ele>
<time>2015-04-06T12:22:19.000Z</time>
</trkpt>
<trkpt lat="33.2379110" lon="35.7439925">
<ele>0.000000</ele>
<time>2015-04-06T12:22:25.000Z</time>
</trkpt>
<trkpt lat="33.2377627" lon="35.7438036">
<ele>0.000000</ele>
<time>2015-04-06T12:22:31.000Z</time>
</trkpt>
<trkpt lat="33.2376846" lon="35.7435622">
<ele>0.000000</ele>
<time>2015-04-06T12:22:36.000Z</time>
</trkpt>
<trkpt lat="33.2375752" lon="35.7434834">
<ele>0.000000</ele>
<time>2015-04-06T12:22:39.000Z</time>
</trkpt>
<trkpt lat="33.2371653" lon="35.7433556">
<ele>0.000000</ele>
<time>2015-04-06T12:22:52.000Z</time>
</trkpt>
<trkpt lat="33.2369491" lon="35.7433570">
<ele>0.000000</ele>
<time>2015-04-06T12:22:58.000Z</time>
</trkpt>
<trkpt lat="33.2368272" lon="35.7434103">
<ele>0.000000</ele>
<time>2015-04-06T12:23:01.000Z</time>
</trkpt>
<trkpt lat="33.2359992" lon="35.7442462">
<ele>0.000000</ele>
<time>2015-04-06T12:23:19.000Z</time>
</trkpt>
<trkpt lat="33.2353961" lon="35.7450306">
<ele>0.000000</ele>
<time>2015-04-06T12:23:31.000Z</time>
</trkpt>
<trkpt lat="33.2350650" lon="35.7455379">
<ele>0.000000</ele>
<time>2015-04-06T12:23:37.000Z</time>
</trkpt>
<trkpt lat="33.2348717" lon="35.7459755">
<ele>0.000000</ele>
<time>2015-04-06T12:23:41.000Z</time>
</trkpt>
<trkpt lat="33.2347316" lon="35.7464840">
<ele>0.000000</ele>
<time>2015-04-06T12:23:46.000Z</time>
</trkpt>
<trkpt lat="33.2346964" lon="35.7469030">
<ele>0.000000</ele>
<time>2015-04-06T12:23:54.000Z</time>
</trkpt>
<trkpt lat="33.2345727" lon="35.7476146">
<ele>0.000000</ele>
<time>2015-04-06T12:24:05.000Z</time>
</trkpt>
<trkpt lat="33.2345316" lon="35.7476990">
<ele>0.000000</ele>
<time>2015-04-06T12:24:19.000Z</time>
</trkpt>
<trkpt lat="33.2341351" lon="35.7479642">
<ele>0.000000</ele>
<time>2015-04-06T12:24:32.000Z</time>
</trkpt>
<trkpt lat="33.2339394" lon="35.7480017">
<ele>0.000000</ele>
<time>2015-04-06T12:24:40.000Z</time>
</trkpt>
<trkpt lat="33.2337657" lon="35.7479550">
<ele>0.000000</ele>
<time>2015-04-06T12:26:48.000Z</time>
</trkpt>
<trkpt lat="33.2333993" lon="35.7474782">
<ele>0.000000</ele>
<time>2015-04-06T12:27:06.000Z</time>
</trkpt>
<trkpt lat="33.2332320" lon="35.7473521">
<ele>0.000000</ele>
<time>2015-04-06T12:27:13.000Z</time>
</trkpt>
<trkpt lat="33.2328108" lon="35.7475379">
<ele>0.000000</ele>
<time>2015-04-06T12:29:42.000Z</time>
</trkpt>
<trkpt lat="33.2328021" lon="35.7472988">
<ele>0.000000</ele>
<time>2015-04-06T12:48:14.000Z</time>
</trkpt>
<trkpt lat="33.2328502" lon="35.7470243">
<ele>0.000000</ele>
<time>2015-04-06T12:48:22.000Z</time>
</trkpt>
<trkpt lat="33.2330184" lon="35.7465687">
<ele>0.000000</ele>
<time>2015-04-06T12:48:33.000Z</time>
</trkpt>
<trkpt lat="33.2331065" lon="35.7459440">
<ele>0.000000</ele>
<time>2015-04-06T12:48:41.000Z</time>
</trkpt>
<trkpt lat="33.2331127" lon="35.7458088">
<ele>0.000000</ele>
<time>2015-04-06T12:48:43.000Z</time>
</trkpt>
<trkpt lat="33.2330746" lon="35.7453747">
<ele>0.000000</ele>
<time>2015-04-06T13:01:32.000Z</time>
</trkpt>
<trkpt lat="33.2330681" lon="35.7450889">
<ele>0.000000</ele>
<time>2015-04-06T13:01:46.000Z</time>
</trkpt>
<trkpt lat="33.2328601" lon="35.7445991">
<ele>0.000000</ele>
<time>2015-04-06T13:01:52.000Z</time>
</trkpt>
<trkpt lat="33.2327811" lon="35.7441982">
<ele>0.000000</ele>
<time>2015-04-06T13:01:59.000Z</time>
</trkpt>
<trkpt lat="33.2326471" lon="35.7439388">
<ele>0.000000</ele>
<time>2015-04-06T13:02:05.000Z</time>
</trkpt>
<trkpt lat="33.2322278" lon="35.7434761">
<ele>0.000000</ele>
<time>2015-04-06T13:02:18.000Z</time>
</trkpt>
<trkpt lat="33.2319079" lon="35.7428872">
<ele>0.000000</ele>
<time>2015-04-06T13:02:26.000Z</time>
</trkpt>
<trkpt lat="33.2316356" lon="35.7422481">
<ele>0.000000</ele>
<time>2015-04-06T13:02:31.000Z</time>
</trkpt>
<trkpt lat="33.2314785" lon="35.7415857">
<ele>0.000000</ele>
<time>2015-04-06T13:02:37.000Z</time>
</trkpt>
<trkpt lat="33.2312059" lon="35.7411811">
<ele>0.000000</ele>
<time>2015-04-06T13:02:45.000Z</time>
</trkpt>
<trkpt lat="33.2306010" lon="35.7409177">
<ele>0.000000</ele>
<time>2015-04-06T13:02:57.000Z</time>
</trkpt>
<trkpt lat="33.2304103" lon="35.7405552">
<ele>0.000000</ele>
<time>2015-04-06T13:03:03.000Z</time>
</trkpt>
<trkpt lat="33.2301441" lon="35.7402313">
<ele>0.000000</ele>
<time>2015-04-06T13:03:09.000Z</time>
</trkpt>
<trkpt lat="33.2299545" lon="35.7396884">
<ele>0.000000</ele>
<time>2015-04-06T13:03:15.000Z</time>
</trkpt>
<trkpt lat="33.2297960" lon="35.7394432">
<ele>0.000000</ele>
<time>2015-04-06T13:03:19.000Z</time>
</trkpt>
<trkpt lat="33.2295201" lon="35.7390089">
<ele>0.000000</ele>
<time>2015-04-06T13:17:19.000Z</time>
</trkpt>
<trkpt lat="33.2295132" lon="35.7387711">
<ele>0.000000</ele>
<time>2015-04-06T13:17:26.000Z</time>
</trkpt>
<trkpt lat="33.2296985" lon="35.7384278">
<ele>0.000000</ele>
<time>2015-04-06T13:17:37.000Z</time>
</trkpt>
<trkpt lat="33.2299284" lon="35.7376320">
<ele>0.000000</ele>
<time>2015-04-06T13:17:51.000Z</time>
</trkpt>
<trkpt lat="33.2302508" lon="35.7372224">
<ele>0.000000</ele>
<time>2015-04-06T13:17:57.000Z</time>
</trkpt>
<trkpt lat="33.2304886" lon="35.7367613">
<ele>0.000000</ele>
<time>2015-04-06T13:18:03.000Z</time>
</trkpt>
<trkpt lat="33.2304879" lon="35.7360091">
<ele>0.000000</ele>
<time>2015-04-06T13:18:16.000Z</time>
</trkpt>
<trkpt lat="33.2310506" lon="35.7350487">
<ele>0.000000</ele>
<time>2015-04-06T13:18:36.000Z</time>
</trkpt>
<trkpt lat="33.2314232" lon="35.7348261">
<ele>0.000000</ele>
<time>2015-04-06T13:18:48.000Z</time>
</trkpt>
<trkpt lat="33.2315293" lon="35.7348429">
<ele>0.000000</ele>
<time>2015-04-06T13:18:52.000Z</time>
</trkpt>
<trkpt lat="33.2317592" lon="35.7350151">
<ele>0.000000</ele>
<time>2015-04-06T13:19:12.000Z</time>
</trkpt>
<trkpt lat="33.2321172" lon="35.7357501">
<ele>0.000000</ele>
<time>2015-04-06T13:20:50.000Z</time>
</trkpt>
<trkpt lat="33.2323551" lon="35.7358022">
<ele>0.000000</ele>
<time>2015-04-06T13:20:57.000Z</time>
</trkpt>
<trkpt lat="33.2328078" lon="35.7357475">
<ele>0.000000</ele>
<time>2015-04-06T13:21:05.000Z</time>
</trkpt>
<trkpt lat="33.2332306" lon="35.7358709">
<ele>0.000000</ele>
<time>2015-04-06T13:21:15.000Z</time>
</trkpt>
<trkpt lat="33.2334395" lon="35.7358755">
<ele>0.000000</ele>
<time>2015-04-06T13:21:21.000Z</time>
</trkpt>
<trkpt lat="33.2340821" lon="35.7356823">
<ele>0.000000</ele>
<time>2015-04-06T13:21:42.000Z</time>
</trkpt>
<trkpt lat="33.2345352" lon="35.7353595">
<ele>0.000000</ele>
<time>2015-04-06T13:21:57.000Z</time>
</trkpt>
<trkpt lat="33.2349876" lon="35.7352052">
<ele>0.000000</ele>
<time>2015-04-06T13:22:08.000Z</time>
</trkpt>
<trkpt lat="33.2352360" lon="35.7349596">
<ele>0.000000</ele>
<time>2015-04-06T13:22:17.000Z</time>
</trkpt>
<trkpt lat="33.2356194" lon="35.7348747">
<ele>0.000000</ele>
<time>2015-04-06T13:22:47.000Z</time>
</trkpt>
<trkpt lat="33.2363215" lon="35.7348198">
<ele>0.000000</ele>
<time>2015-04-06T13:23:22.000Z</time>
</trkpt>
<trkpt lat="33.2364614" lon="35.7347935">
<ele>0.000000</ele>
<time>2015-04-06T13:23:25.000Z</time>
</trkpt>
<trkpt lat="33.2367394" lon="35.7346223">
<ele>0.000000</ele>
<time>2015-04-06T13:23:41.000Z</time>
</trkpt>
<trkpt lat="33.2370341" lon="35.7346505">
<ele>0.000000</ele>
<time>2015-04-06T13:24:31.000Z</time>
</trkpt>
<trkpt lat="33.2371481" lon="35.7345865">
<ele>0.000000</ele>
<time>2015-04-06T13:24:35.000Z</time>
</trkpt>
<trkpt lat="33.2373973" lon="35.7341370">
<ele>0.000000</ele>
<time>2015-04-06T13:24:47.000Z</time>
</trkpt>
<trkpt lat="33.2373828" lon="35.7340084">
<ele>0.000000</ele>
<time>2015-04-06T13:24:50.000Z</time>
</trkpt>
<trkpt lat="33.2372032" lon="35.7337449">
<ele>0.000000</ele>
<time>2015-04-06T13:25:02.000Z</time>
</trkpt>
<trkpt lat="33.2372548" lon="35.7333973">
<ele>0.000000</ele>
<time>2015-04-06T13:25:11.000Z</time>
</trkpt>
<trkpt lat="33.2370794" lon="35.7329105">
<ele>0.000000</ele>
<time>2015-04-06T13:25:23.000Z</time>
</trkpt>
<trkpt lat="33.2368407" lon="35.7326444">
<ele>0.000000</ele>
<time>2015-04-06T13:25:33.000Z</time>
</trkpt>
<trkpt lat="33.2367530" lon="35.7324263">
<ele>0.000000</ele>
<time>2015-04-06T13:25:39.000Z</time>
</trkpt>
<trkpt lat="33.2366729" lon="35.7320064">
<ele>0.000000</ele>
<time>2015-04-06T13:25:48.000Z</time>
</trkpt>
<trkpt lat="33.2367305" lon="35.7313578">
<ele>0.000000</ele>
<time>2015-04-06T13:26:04.000Z</time>
</trkpt>
<trkpt lat="33.2366720" lon="35.7312531">
<ele>0.000000</ele>
<time>2015-04-06T13:26:08.000Z</time>
</trkpt>
<trkpt lat="33.2364292" lon="35.7311324">
<ele>0.000000</ele>
<time>2015-04-06T13:26:19.000Z</time>
</trkpt>
<trkpt lat="33.2364312" lon="35.7306550">
<ele>0.000000</ele>
<time>2015-04-06T13:26:31.000Z</time>
</trkpt>
<trkpt lat="33.2363193" lon="35.7302793">
<ele>0.000000</ele>
<time>2015-04-06T13:26:40.000Z</time>
</trkpt>
<trkpt lat="33.2362612" lon="35.7297505">
<ele>0.000000</ele>
<time>2015-04-06T13:26:55.000Z</time>
</trkpt>
<trkpt lat="33.2361748" lon="35.7297918">
<ele>0.000000</ele>
<time>2015-04-06T13:27:01.000Z</time>
</trkpt>
<trkpt lat="33.2360246" lon="35.7300463">
<ele>0.000000</ele>
<time>2015-04-06T13:27:21.000Z</time>
</trkpt>
<trkpt lat="33.2355859" lon="35.7304048">
<ele>0.000000</ele>
<time>2015-04-06T13:27:35.000Z</time>
</trkpt>
<trkpt lat="33.2353129" lon="35.7308095">
<ele>0.000000</ele>
<time>2015-04-06T13:27:44.000Z</time>
</trkpt>
<trkpt lat="33.2351376" lon="35.7309751">
<ele>0.000000</ele>
<time>2015-04-06T13:27:50.000Z</time>
</trkpt>
<trkpt lat="33.2350161" lon="35.7310255">
<ele>0.000000</ele>
<time>2015-04-06T13:27:53.000Z</time>
</trkpt>
<trkpt lat="33.2347145" lon="35.7309275">
<ele>0.000000</ele>
<time>2015-04-06T13:28:01.000Z</time>
</trkpt>
<trkpt lat="33.2345097" lon="35.7309254">
<ele>0.000000</ele>
<time>2015-04-06T13:28:08.000Z</time>
</trkpt>
<trkpt lat="33.2339454" lon="35.7311786">
<ele>0.000000</ele>
<time>2015-04-06T13:28:25.000Z</time>
</trkpt>
<trkpt lat="33.2336917" lon="35.7311375">
<ele>0.000000</ele>
<time>2015-04-06T13:28:31.000Z</time>
</trkpt>
<trkpt lat="33.2332011" lon="35.7309430">
<ele>0.000000</ele>
<time>2015-04-06T13:28:41.000Z</time>
</trkpt>
<trkpt lat="33.2322661" lon="35.7309665">
<ele>0.000000</ele>
<time>2015-04-06T13:28:57.000Z</time>
</trkpt>
<trkpt lat="33.2313915" lon="35.7308955">
<ele>0.000000</ele>
<time>2015-04-06T13:29:11.000Z</time>
</trkpt>
<trkpt lat="33.2308947" lon="35.7306866">
<ele>0.000000</ele>
<time>2015-04-06T13:29:21.000Z</time>
</trkpt>
<trkpt lat="33.2299054" lon="35.7301279">
<ele>0.000000</ele>
<time>2015-04-06T13:29:37.000Z</time>
</trkpt>
<trkpt lat="33.2294319" lon="35.7300212">
<ele>0.000000</ele>
<time>2015-04-06T13:29:45.000Z</time>
</trkpt>
<trkpt lat="33.2289951" lon="35.7302193">
<ele>0.000000</ele>
<time>2015-04-06T13:29:51.000Z</time>
</trkpt>
<trkpt lat="33.2288352" lon="35.7302126">
<ele>0.000000</ele>
<time>2015-04-06T13:29:53.000Z</time>
</trkpt>
<trkpt lat="33.2284428" lon="35.7299306">
<ele>0.000000</ele>
<time>2015-04-06T13:29:59.000Z</time>
</trkpt>
<trkpt lat="33.2282777" lon="35.7294618">
<ele>0.000000</ele>
<time>2015-04-06T13:30:08.000Z</time>
</trkpt>
<trkpt lat="33.2279797" lon="35.7280764">
<ele>0.000000</ele>
<time>2015-04-06T13:30:41.000Z</time>
</trkpt>
<trkpt lat="33.2276698" lon="35.7270142">
<ele>0.000000</ele>
<time>2015-04-06T13:32:03.000Z</time>
</trkpt>
<trkpt lat="33.2276597" lon="35.7266434">
<ele>0.000000</ele>
<time>2015-04-06T13:32:13.000Z</time>
</trkpt>
<trkpt lat="33.2277648" lon="35.7257358">
<ele>0.000000</ele>
<time>2015-04-06T13:32:34.000Z</time>
</trkpt>
<trkpt lat="33.2276668" lon="35.7248801">
<ele>0.000000</ele>
<time>2015-04-06T13:32:56.000Z</time>
</trkpt>
<trkpt lat="33.2276468" lon="35.7240236">
<ele>0.000000</ele>
<time>2015-04-06T13:33:28.000Z</time>
</trkpt>
<trkpt lat="33.2277965" lon="35.7235316">
<ele>0.000000</ele>
<time>2015-04-06T13:33:47.000Z</time>
</trkpt>
<trkpt lat="33.2279029" lon="35.7226159">
<ele>0.000000</ele>
<time>2015-04-06T13:34:22.000Z</time>
</trkpt>
<trkpt lat="33.2280451" lon="35.7222611">
<ele>0.000000</ele>
<time>2015-04-06T13:34:37.000Z</time>
</trkpt>
<trkpt lat="33.2286130" lon="35.7214457">
<ele>0.000000</ele>
<time>2015-04-06T13:35:17.000Z</time>
</trkpt>
<trkpt lat="33.2294765" lon="35.7207265">
<ele>0.000000</ele>
<time>2015-04-06T13:36:06.000Z</time>
</trkpt>
<trkpt lat="33.2301006" lon="35.7201026">
<ele>0.000000</ele>
<time>2015-04-06T13:36:36.000Z</time>
</trkpt>
<trkpt lat="33.2302618" lon="35.7199146">
<ele>0.000000</ele>
<time>2015-04-06T13:36:42.000Z</time>
</trkpt>
<trkpt lat="33.2303178" lon="35.7196594">
<ele>0.000000</ele>
<time>2015-04-06T13:36:48.000Z</time>
</trkpt>
<trkpt lat="33.2302693" lon="35.7195303">
<ele>0.000000</ele>
<time>2015-04-06T13:36:51.000Z</time>
</trkpt>
<trkpt lat="33.2301601" lon="35.7194579">
<ele>0.000000</ele>
<time>2015-04-06T13:36:54.000Z</time>
</trkpt>
<trkpt lat="33.2298399" lon="35.7195569">
<ele>0.000000</ele>
<time>2015-04-06T13:37:04.000Z</time>
</trkpt>
<trkpt lat="33.2294836" lon="35.7193205">
<ele>0.000000</ele>
<time>2015-04-06T13:37:38.000Z</time>
</trkpt>
<trkpt lat="33.2289139" lon="35.7191552">
<ele>0.000000</ele>
<time>2015-04-06T13:37:52.000Z</time>
</trkpt>
<trkpt lat="33.2286786" lon="35.7189290">
<ele>0.000000</ele>
<time>2015-04-06T13:37:56.000Z</time>
</trkpt>
<trkpt lat="33.2284269" lon="35.7185127">
<ele>0.000000</ele>
<time>2015-04-06T13:38:02.000Z</time>
</trkpt>
<trkpt lat="33.2281213" lon="35.7182236">
<ele>0.000000</ele>
<time>2015-04-06T13:38:08.000Z</time>
</trkpt>
<trkpt lat="33.2280127" lon="35.7178874">
<ele>0.000000</ele>
<time>2015-04-06T13:38:12.000Z</time>
</trkpt>
<trkpt lat="33.2279855" lon="35.7169783">
<ele>0.000000</ele>
<time>2015-04-06T13:38:22.000Z</time>
</trkpt>
<trkpt lat="33.2280529" lon="35.7162495">
<ele>0.000000</ele>
<time>2015-04-06T13:38:30.000Z</time>
</trkpt>
<trkpt lat="33.2279962" lon="35.7158570">
<ele>0.000000</ele>
<time>2015-04-06T13:38:34.000Z</time>
</trkpt>
<trkpt lat="33.2279249" lon="35.7156741">
<ele>0.000000</ele>
<time>2015-04-06T13:38:36.000Z</time>
</trkpt>
<trkpt lat="33.2270159" lon="35.7145062">
<ele>0.000000</ele>
<time>2015-04-06T13:38:51.000Z</time>
</trkpt>
<trkpt lat="33.2268703" lon="35.7144480">
<ele>0.000000</ele>
<time>2015-04-06T13:38:53.000Z</time>
</trkpt>
<trkpt lat="33.2262545" lon="35.7143964">
<ele>0.000000</ele>
<time>2015-04-06T13:39:00.000Z</time>
</trkpt>
<trkpt lat="33.2260909" lon="35.7143349">
<ele>0.000000</ele>
<time>2015-04-06T13:39:02.000Z</time>
</trkpt>
<trkpt lat="33.2257942" lon="35.7140907">
<ele>0.000000</ele>
<time>2015-04-06T13:39:06.000Z</time>
</trkpt>
<trkpt lat="33.2256828" lon="35.7139262">
<ele>0.000000</ele>
<time>2015-04-06T13:39:08.000Z</time>
</trkpt>
<trkpt lat="33.2256408" lon="35.7137298">
<ele>0.000000</ele>
<time>2015-04-06T13:39:10.000Z</time>
</trkpt>
<trkpt lat="33.2257432" lon="35.7126118">
<ele>0.000000</ele>
<time>2015-04-06T13:39:22.000Z</time>
</trkpt>
<trkpt lat="33.2256682" lon="35.7122527">
<ele>0.000000</ele>
<time>2015-04-06T13:39:26.000Z</time>
</trkpt>
<trkpt lat="33.2243125" lon="35.7103406">
<ele>0.000000</ele>
<time>2015-04-06T13:39:49.000Z</time>
</trkpt>
<trkpt lat="33.2242325" lon="35.7102082">
<ele>0.000000</ele>
<time>2015-04-06T13:39:51.000Z</time>
</trkpt>
<trkpt lat="33.2241811" lon="35.7099770">
<ele>0.000000</ele>
<time>2015-04-06T13:39:55.000Z</time>
</trkpt>
<trkpt lat="33.2242725" lon="35.7098806">
<ele>0.000000</ele>
<time>2015-04-06T13:39:58.000Z</time>
</trkpt>
<trkpt lat="33.2249011" lon="35.7102323">
<ele>0.000000</ele>
<time>2015-04-06T13:40:08.000Z</time>
</trkpt>
<trkpt lat="33.2252142" lon="35.7102967">
<ele>0.000000</ele>
<time>2015-04-06T13:40:12.000Z</time>
</trkpt>
<trkpt lat="33.2257432" lon="35.7102913">
<ele>0.000000</ele>
<time>2015-04-06T13:40:18.000Z</time>
</trkpt>
<trkpt lat="33.2273009" lon="35.7100180">
<ele>0.000000</ele>
<time>2015-04-06T13:40:35.000Z</time>
</trkpt>
<trkpt lat="33.2277576" lon="35.7101858">
<ele>0.000000</ele>
<time>2015-04-06T13:40:41.000Z</time>
</trkpt>
<trkpt lat="33.2279042" lon="35.7101818">
<ele>0.000000</ele>
<time>2015-04-06T13:40:43.000Z</time>
</trkpt>
<trkpt lat="33.2284578" lon="35.7098594">
<ele>0.000000</ele>
<time>2015-04-06T13:40:50.000Z</time>
</trkpt>
<trkpt lat="33.2307786" lon="35.7088672">
<ele>0.000000</ele>
<time>2015-04-06T13:41:15.000Z</time>
</trkpt>
<trkpt lat="33.2312391" lon="35.7085075">
<ele>0.000000</ele>
<time>2015-04-06T13:41:25.000Z</time>
</trkpt>
<trkpt lat="33.2314442" lon="35.7084803">
<ele>0.000000</ele>
<time>2015-04-06T13:41:30.000Z</time>
</trkpt>
<trkpt lat="33.2322093" lon="35.7086865">
<ele>0.000000</ele>
<time>2015-04-06T13:41:43.000Z</time>
</trkpt>
<trkpt lat="33.2337061" lon="35.7088605">
<ele>0.000000</ele>
<time>2015-04-06T13:41:58.000Z</time>
</trkpt>
<trkpt lat="33.2340004" lon="35.7089344">
<ele>0.000000</ele>
<time>2015-04-06T13:42:02.000Z</time>
</trkpt>
<trkpt lat="33.2341792" lon="35.7091345">
<ele>0.000000</ele>
<time>2015-04-06T13:42:06.000Z</time>
</trkpt>
<trkpt lat="33.2346218" lon="35.7099330">
<ele>0.000000</ele>
<time>2015-04-06T13:42:16.000Z</time>
</trkpt>
<trkpt lat="33.2348909" lon="35.7110490">
<ele>0.000000</ele>
<time>2015-04-06T13:42:28.000Z</time>
</trkpt>
<trkpt lat="33.2350975" lon="35.7113504">
<ele>0.000000</ele>
<time>2015-04-06T13:42:32.000Z</time>
</trkpt>
<trkpt lat="33.2354697" lon="35.7116570">
<ele>0.000000</ele>
<time>2015-04-06T13:42:37.000Z</time>
</trkpt>
<trkpt lat="33.2360351" lon="35.7119108">
<ele>0.000000</ele>
<time>2015-04-06T13:42:44.000Z</time>
</trkpt>
<trkpt lat="33.2362987" lon="35.7118848">
<ele>0.000000</ele>
<time>2015-04-06T13:42:48.000Z</time>
</trkpt>
<trkpt lat="33.2364025" lon="35.7117932">
<ele>0.000000</ele>
<time>2015-04-06T13:42:50.000Z</time>
</trkpt>
<trkpt lat="33.2364651" lon="35.7116554">
<ele>0.000000</ele>
<time>2015-04-06T13:42:52.000Z</time>
</trkpt>
<trkpt lat="33.2367179" lon="35.7101377">
<ele>0.000000</ele>
<time>2015-04-06T13:43:07.000Z</time>
</trkpt>
<trkpt lat="33.2371239" lon="35.7092913">
<ele>0.000000</ele>
<time>2015-04-06T13:43:19.000Z</time>
</trkpt>
<trkpt lat="33.2373358" lon="35.7091046">
<ele>0.000000</ele>
<time>2015-04-06T13:43:23.000Z</time>
</trkpt>
<trkpt lat="33.2379011" lon="35.7089362">
<ele>0.000000</ele>
<time>2015-04-06T13:43:31.000Z</time>
</trkpt>
<trkpt lat="33.2382739" lon="35.7085669">
<ele>0.000000</ele>
<time>2015-04-06T13:43:37.000Z</time>
</trkpt>
<trkpt lat="33.2384487" lon="35.7082214">
<ele>0.000000</ele>
<time>2015-04-06T13:43:41.000Z</time>
</trkpt>
<trkpt lat="33.2385697" lon="35.7072442">
<ele>0.000000</ele>
<time>2015-04-06T13:43:50.000Z</time>
</trkpt>
<trkpt lat="33.2385563" lon="35.7068789">
<ele>0.000000</ele>
<time>2015-04-06T13:43:54.000Z</time>
</trkpt>
<trkpt lat="33.2383882" lon="35.7065426">
<ele>0.000000</ele>
<time>2015-04-06T13:43:58.000Z</time>
</trkpt>
<trkpt lat="33.2377292" lon="35.7056185">
<ele>0.000000</ele>
<time>2015-04-06T13:44:09.000Z</time>
</trkpt>
<trkpt lat="33.2376908" lon="35.7054484">
<ele>0.000000</ele>
<time>2015-04-06T13:44:11.000Z</time>
</trkpt>
<trkpt lat="33.2377291" lon="35.7052596">
<ele>0.000000</ele>
<time>2015-04-06T13:44:13.000Z</time>
</trkpt>
<trkpt lat="33.2379567" lon="35.7049264">
<ele>0.000000</ele>
<time>2015-04-06T13:44:17.000Z</time>
</trkpt>
<trkpt lat="33.2382890" lon="35.7046056">
<ele>0.000000</ele>
<time>2015-04-06T13:44:22.000Z</time>
</trkpt>
<trkpt lat="33.2385540" lon="35.7044624">
<ele>0.000000</ele>
<time>2015-04-06T13:44:26.000Z</time>
</trkpt>
<trkpt lat="33.2390511" lon="35.7045043">
<ele>0.000000</ele>
<time>2015-04-06T13:44:34.000Z</time>
</trkpt>
<trkpt lat="33.2391632" lon="35.7044400">
<ele>0.000000</ele>
<time>2015-04-06T13:44:36.000Z</time>
</trkpt>
<trkpt lat="33.2392357" lon="35.7043135">
<ele>0.000000</ele>
<time>2015-04-06T13:44:38.000Z</time>
</trkpt>
<trkpt lat="33.2392475" lon="35.7041380">
<ele>0.000000</ele>
<time>2015-04-06T13:44:40.000Z</time>
</trkpt>
<trkpt lat="33.2391816" lon="35.7039607">
<ele>0.000000</ele>
<time>2015-04-06T13:44:42.000Z</time>
</trkpt>
<trkpt lat="33.2388244" lon="35.7035609">
<ele>0.000000</ele>
<time>2015-04-06T13:44:48.000Z</time>
</trkpt>
<trkpt lat="33.2387461" lon="35.7034302">
<ele>0.000000</ele>
<time>2015-04-06T13:44:50.000Z</time>
</trkpt>
<trkpt lat="33.2387415" lon="35.7032822">
<ele>0.000000</ele>
<time>2015-04-06T13:44:52.000Z</time>
</trkpt>
<trkpt lat="33.2388970" lon="35.7030798">
<ele>0.000000</ele>
<time>2015-04-06T13:44:56.000Z</time>
</trkpt>
<trkpt lat="33.2394728" lon="35.7029678">
<ele>0.000000</ele>
<time>2015-04-06T13:45:12.000Z</time>
</trkpt>
<trkpt lat="33.2395695" lon="35.7028962">
<ele>0.000000</ele>
<time>2015-04-06T13:45:15.000Z</time>
</trkpt>
<trkpt lat="33.2396806" lon="35.7027155">
<ele>0.000000</ele>
<time>2015-04-06T13:45:24.000Z</time>
</trkpt>
<trkpt lat="33.2407322" lon="35.6998861">
<ele>0.000000</ele>
<time>2015-04-06T13:46:20.000Z</time>
</trkpt>
<trkpt lat="33.2408046" lon="35.6994606">
<ele>0.000000</ele>
<time>2015-04-06T13:46:23.000Z</time>
</trkpt>
<trkpt lat="33.2408495" lon="35.6984634">
<ele>0.000000</ele>
<time>2015-04-06T13:46:31.000Z</time>
</trkpt>
<trkpt lat="33.2409063" lon="35.6983173">
<ele>0.000000</ele>
<time>2015-04-06T13:46:33.000Z</time>
</trkpt>
<trkpt lat="33.2410176" lon="35.6982328">
<ele>0.000000</ele>
<time>2015-04-06T13:46:35.000Z</time>
</trkpt>
<trkpt lat="33.2411705" lon="35.6982415">
<ele>0.000000</ele>
<time>2015-04-06T13:46:37.000Z</time>
</trkpt>
<trkpt lat="33.2416708" lon="35.6984777">
<ele>0.000000</ele>
<time>2015-04-06T13:46:43.000Z</time>
</trkpt>
<trkpt lat="33.2417629" lon="35.6984808">
<ele>0.000000</ele>
<time>2015-04-06T13:46:44.000Z</time>
</trkpt>
<trkpt lat="33.2420245" lon="35.6983608">
<ele>0.000000</ele>
<time>2015-04-06T13:46:47.000Z</time>
</trkpt>
<trkpt lat="33.2427806" lon="35.6975855">
<ele>0.000000</ele>
<time>2015-04-06T13:46:59.000Z</time>
</trkpt>
<trkpt lat="33.2433562" lon="35.6963964">
<ele>0.000000</ele>
<time>2015-04-06T13:47:12.000Z</time>
</trkpt>
<trkpt lat="33.2434520" lon="35.6956562">
<ele>0.000000</ele>
<time>2015-04-06T13:47:18.000Z</time>
</trkpt>
<trkpt lat="33.2434430" lon="35.6951775">
<ele>0.000000</ele>
<time>2015-04-06T13:47:22.000Z</time>
</trkpt>
<trkpt lat="33.2426252" lon="35.6919369">
<ele>0.000000</ele>
<time>2015-04-06T13:47:54.000Z</time>
</trkpt>
<trkpt lat="33.2425561" lon="35.6915398">
<ele>0.000000</ele>
<time>2015-04-06T13:47:58.000Z</time>
</trkpt>
<trkpt lat="33.2426310" lon="35.6912375">
<ele>0.000000</ele>
<time>2015-04-06T13:48:01.000Z</time>
</trkpt>
<trkpt lat="33.2431145" lon="35.6903434">
<ele>0.000000</ele>
<time>2015-04-06T13:48:10.000Z</time>
</trkpt>
<trkpt lat="33.2432641" lon="35.6900798">
<ele>0.000000</ele>
<time>2015-04-06T13:48:13.000Z</time>
</trkpt>
<trkpt lat="33.2433789" lon="35.6899718">
<ele>0.000000</ele>
<time>2015-04-06T13:48:15.000Z</time>
</trkpt>
<trkpt lat="33.2435391" lon="35.6899586">
<ele>0.000000</ele>
<time>2015-04-06T13:48:17.000Z</time>
</trkpt>
<trkpt lat="33.2436781" lon="35.6900450">
<ele>0.000000</ele>
<time>2015-04-06T13:48:19.000Z</time>
</trkpt>
<trkpt lat="33.2440494" lon="35.6906391">
<ele>0.000000</ele>
<time>2015-04-06T13:48:27.000Z</time>
</trkpt>
<trkpt lat="33.2459891" lon="35.6916991">
<ele>0.000000</ele>
<time>2015-04-06T13:48:48.000Z</time>
</trkpt>
<trkpt lat="33.2473174" lon="35.6925032">
<ele>0.000000</ele>
<time>2015-04-06T13:49:14.000Z</time>
</trkpt>
<trkpt lat="33.2475142" lon="35.6925046">
<ele>0.000000</ele>
<time>2015-04-06T13:49:18.000Z</time>
</trkpt>
<trkpt lat="33.2478790" lon="35.6920695">
<ele>0.000000</ele>
<time>2015-04-06T13:49:30.000Z</time>
</trkpt>
<trkpt lat="33.2481869" lon="35.6918780">
<ele>0.000000</ele>
<time>2015-04-06T13:49:36.000Z</time>
</trkpt>
<trkpt lat="33.2482614" lon="35.6917489">
<ele>0.000000</ele>
<time>2015-04-06T13:49:38.000Z</time>
</trkpt>
<trkpt lat="33.2482921" lon="35.6915903">
<ele>0.000000</ele>
<time>2015-04-06T13:49:40.000Z</time>
</trkpt>
<trkpt lat="33.2482408" lon="35.6912800">
<ele>0.000000</ele>
<time>2015-04-06T13:49:44.000Z</time>
</trkpt>
<trkpt lat="33.2477600" lon="35.6905801">
<ele>0.000000</ele>
<time>2015-04-06T13:49:56.000Z</time>
</trkpt>
<trkpt lat="33.2475790" lon="35.6902268">
<ele>0.000000</ele>
<time>2015-04-06T13:50:02.000Z</time>
</trkpt>
<trkpt lat="33.2475094" lon="35.6898679">
<ele>0.000000</ele>
<time>2015-04-06T13:50:08.000Z</time>
</trkpt>
<trkpt lat="33.2474285" lon="35.6884559">
<ele>0.000000</ele>
<time>2015-04-06T13:50:34.000Z</time>
</trkpt>
<trkpt lat="33.2475385" lon="35.6855861">
<ele>0.000000</ele>
<time>2015-04-06T13:51:21.000Z</time>
</trkpt>
<trkpt lat="33.2477931" lon="35.6820147">
<ele>0.000000</ele>
<time>2015-04-06T13:51:59.000Z</time>
</trkpt>
<trkpt lat="33.2478450" lon="35.6808239">
<ele>0.000000</ele>
<time>2015-04-06T13:52:10.000Z</time>
</trkpt>
<trkpt lat="33.2479296" lon="35.6799144">
<ele>0.000000</ele>
<time>2015-04-06T13:52:18.000Z</time>
</trkpt>
<trkpt lat="33.2480409" lon="35.6793279">
<ele>0.000000</ele>
<time>2015-04-06T13:52:23.000Z</time>
</trkpt>
<trkpt lat="33.2483110" lon="35.6784841">
<ele>0.000000</ele>
<time>2015-04-06T13:52:31.000Z</time>
</trkpt>
<trkpt lat="33.2483920" lon="35.6782783">
<ele>0.000000</ele>
<time>2015-04-06T13:52:33.000Z</time>
</trkpt>
<trkpt lat="33.2484980" lon="35.6781110">
<ele>0.000000</ele>
<time>2015-04-06T13:52:35.000Z</time>
</trkpt>
<trkpt lat="33.2486404" lon="35.6779999">
<ele>0.000000</ele>
<time>2015-04-06T13:52:37.000Z</time>
</trkpt>
<trkpt lat="33.2489746" lon="35.6779537">
<ele>0.000000</ele>
<time>2015-04-06T13:52:41.000Z</time>
</trkpt>
<trkpt lat="33.2498975" lon="35.6782374">
<ele>0.000000</ele>
<time>2015-04-06T13:52:51.000Z</time>
</trkpt>
<trkpt lat="33.2506161" lon="35.6785293">
<ele>0.000000</ele>
<time>2015-04-06T13:52:58.000Z</time>
</trkpt>
<trkpt lat="33.2508338" lon="35.6785203">
<ele>0.000000</ele>
<time>2015-04-06T13:53:00.000Z</time>
</trkpt>
<trkpt lat="33.2511320" lon="35.6783910">
<ele>0.000000</ele>
<time>2015-04-06T13:53:03.000Z</time>
</trkpt>
<trkpt lat="33.2512957" lon="35.6782625">
<ele>0.000000</ele>
<time>2015-04-06T13:53:05.000Z</time>
</trkpt>
<trkpt lat="33.2514032" lon="35.6780854">
<ele>0.000000</ele>
<time>2015-04-06T13:53:07.000Z</time>
</trkpt>
<trkpt lat="33.2514182" lon="35.6777582">
<ele>0.000000</ele>
<time>2015-04-06T13:53:10.000Z</time>
</trkpt>
<trkpt lat="33.2505651" lon="35.6744136">
<ele>0.000000</ele>
<time>2015-04-06T13:53:37.000Z</time>
</trkpt>
<trkpt lat="33.2505570" lon="35.6740526">
<ele>0.000000</ele>
<time>2015-04-06T13:53:40.000Z</time>
</trkpt>
<trkpt lat="33.2506237" lon="35.6737072">
<ele>0.000000</ele>
<time>2015-04-06T13:53:43.000Z</time>
</trkpt>
<trkpt lat="33.2510011" lon="35.6730976">
<ele>0.000000</ele>
<time>2015-04-06T13:53:50.000Z</time>
</trkpt>
<trkpt lat="33.2510706" lon="35.6729369">
<ele>0.000000</ele>
<time>2015-04-06T13:53:52.000Z</time>
</trkpt>
<trkpt lat="33.2510714" lon="35.6727875">
<ele>0.000000</ele>
<time>2015-04-06T13:53:54.000Z</time>
</trkpt>
<trkpt lat="33.2509754" lon="35.6725047">
<ele>0.000000</ele>
<time>2015-04-06T13:53:58.000Z</time>
</trkpt>
<trkpt lat="33.2508873" lon="35.6723830">
<ele>0.000000</ele>
<time>2015-04-06T13:54:00.000Z</time>
</trkpt>
<trkpt lat="33.2502722" lon="35.6717640">
<ele>0.000000</ele>
<time>2015-04-06T13:54:10.000Z</time>
</trkpt>
<trkpt lat="33.2484566" lon="35.6694167">
<ele>0.000000</ele>
<time>2015-04-06T13:54:36.000Z</time>
</trkpt>
<trkpt lat="33.2477833" lon="35.6686238">
<ele>0.000000</ele>
<time>2015-04-06T13:54:45.000Z</time>
</trkpt>
<trkpt lat="33.2446944" lon="35.6657320">
<ele>0.000000</ele>
<time>2015-04-06T13:55:22.000Z</time>
</trkpt>
<trkpt lat="33.2391663" lon="35.6607760">
<ele>0.000000</ele>
<time>2015-04-06T13:56:27.000Z</time>
</trkpt>
<trkpt lat="33.2384473" lon="35.6599891">
<ele>0.000000</ele>
<time>2015-04-06T13:56:36.000Z</time>
</trkpt>
<trkpt lat="33.2382152" lon="35.6595492">
<ele>0.000000</ele>
<time>2015-04-06T13:56:40.000Z</time>
</trkpt>
<trkpt lat="33.2381700" lon="35.6591841">
<ele>0.000000</ele>
<time>2015-04-06T13:56:43.000Z</time>
</trkpt>
<trkpt lat="33.2381589" lon="35.6584087">
<ele>0.000000</ele>
<time>2015-04-06T13:56:50.000Z</time>
</trkpt>
<trkpt lat="33.2380180" lon="35.6578299">
<ele>0.000000</ele>
<time>2015-04-06T13:56:56.000Z</time>
</trkpt>
<trkpt lat="33.2379686" lon="35.6574161">
<ele>0.000000</ele>
<time>2015-04-06T13:57:00.000Z</time>
</trkpt>
<trkpt lat="33.2379493" lon="35.6569926">
<ele>0.000000</ele>
<time>2015-04-06T13:57:04.000Z</time>
</trkpt>
<trkpt lat="33.2381519" lon="35.6558856">
<ele>0.000000</ele>
<time>2015-04-06T13:57:15.000Z</time>
</trkpt>
<trkpt lat="33.2380871" lon="35.6554984">
<ele>0.000000</ele>
<time>2015-04-06T13:57:19.000Z</time>
</trkpt>
<trkpt lat="33.2378876" lon="35.6551655">
<ele>0.000000</ele>
<time>2015-04-06T13:57:23.000Z</time>
</trkpt>
<trkpt lat="33.2340111" lon="35.6497811">
<ele>0.000000</ele>
<time>2015-04-06T13:58:26.000Z</time>
</trkpt>
<trkpt lat="33.2329202" lon="35.6481648">
<ele>0.000000</ele>
<time>2015-04-06T13:58:46.000Z</time>
</trkpt>
<trkpt lat="33.2290413" lon="35.6430853">
<ele>0.000000</ele>
<time>2015-04-06T13:59:56.000Z</time>
</trkpt>
<trkpt lat="33.2280310" lon="35.6416576">
<ele>0.000000</ele>
<time>2015-04-06T14:00:14.000Z</time>
</trkpt>
<trkpt lat="33.2273939" lon="35.6405270">
<ele>0.000000</ele>
<time>2015-04-06T14:00:27.000Z</time>
</trkpt>
<trkpt lat="33.2269697" lon="35.6394511">
<ele>0.000000</ele>
<time>2015-04-06T14:00:39.000Z</time>
</trkpt>
<trkpt lat="33.2261284" lon="35.6369051">
<ele>0.000000</ele>
<time>2015-04-06T14:01:11.000Z</time>
</trkpt>
<trkpt lat="33.2246109" lon="35.6326135">
<ele>0.000000</ele>
<time>2015-04-06T14:02:07.000Z</time>
</trkpt>
<trkpt lat="33.2244574" lon="35.6323137">
<ele>0.000000</ele>
<time>2015-04-06T14:02:13.000Z</time>
</trkpt>
<trkpt lat="33.2241444" lon="35.6314928">
<ele>0.000000</ele>
<time>2015-04-06T14:02:30.000Z</time>
</trkpt>
<trkpt lat="33.2240359" lon="35.6314716">
<ele>0.000000</ele>
<time>2015-04-06T14:02:33.000Z</time>
</trkpt>
<trkpt lat="33.2236374" lon="35.6316411">
<ele>0.000000</ele>
<time>2015-04-06T14:02:44.000Z</time>
</trkpt>
<trkpt lat="33.2237431" lon="35.6318964">
<ele>0.000000</ele>
<time>2015-04-06T14:04:23.000Z</time>
</trkpt>
<trkpt lat="33.2238392" lon="35.6319575">
<ele>0.000000</ele>
<time>2015-04-06T14:04:44.000Z</time>
</trkpt>
<trkpt lat="33.2237538" lon="35.6318321">
<ele>0.000000</ele>
<time>2015-04-06T14:06:36.000Z</time>
</trkpt>
<trkpt lat="33.2235613" lon="35.6317021">
<ele>0.000000</ele>
<time>2015-04-06T14:06:48.000Z</time>
</trkpt>
<trkpt lat="33.2231983" lon="35.6318324">
<ele>0.000000</ele>
<time>2015-04-06T14:07:00.000Z</time>
</trkpt>
<trkpt lat="33.2229033" lon="35.6320018">
<ele>0.000000</ele>
<time>2015-04-06T14:07:06.000Z</time>
</trkpt>
<trkpt lat="33.2223977" lon="35.6325399">
<ele>0.000000</ele>
<time>2015-04-06T14:07:18.000Z</time>
</trkpt>
<trkpt lat="33.2216354" lon="35.6336814">
<ele>0.000000</ele>
<time>2015-04-06T14:07:37.000Z</time>
</trkpt>
<trkpt lat="33.2215309" lon="35.6337004">
<ele>0.000000</ele>
<time>2015-04-06T14:07:41.000Z</time>
</trkpt>
<trkpt lat="33.2213812" lon="35.6335421">
<ele>0.000000</ele>
<time>2015-04-06T14:07:46.000Z</time>
</trkpt>
<trkpt lat="33.2207995" lon="35.6324431">
<ele>0.000000</ele>
<time>2015-04-06T14:08:04.000Z</time>
</trkpt>
<trkpt lat="33.2209461" lon="35.6321199">
<ele>0.000000</ele>
<time>2015-04-06T14:08:19.000Z</time>
</trkpt>
<trkpt lat="33.2208176" lon="35.6318485">
<ele>0.000000</ele>
<time>2015-04-06T14:08:24.000Z</time>
</trkpt>
<trkpt lat="33.2207972" lon="35.6315477">
<ele>0.000000</ele>
<time>2015-04-06T14:08:28.000Z</time>
</trkpt>
<trkpt lat="33.2208557" lon="35.6314320">
<ele>0.000000</ele>
<time>2015-04-06T14:08:30.000Z</time>
</trkpt>
<trkpt lat="33.2210286" lon="35.6313130">
<ele>0.000000</ele>
<time>2015-04-06T14:08:34.000Z</time>
</trkpt>
<trkpt lat="33.2212670" lon="35.6312174">
<ele>0.000000</ele>
<time>2015-04-06T14:08:40.000Z</time>
</trkpt>
<trkpt lat="33.2217679" lon="35.6311349">
<ele>0.000000</ele>
<time>2015-04-06T14:08:58.000Z</time>
</trkpt>
<trkpt lat="33.2220638" lon="35.6313505">
<ele>0.000000</ele>
<time>2015-04-06T14:09:10.000Z</time>
</trkpt>
<trkpt lat="33.2222216" lon="35.6316980">
<ele>0.000000</ele>
<time>2015-04-06T14:09:21.000Z</time>
</trkpt>
<trkpt lat="33.2225915" lon="35.6318549">
<ele>0.000000</ele>
<time>2015-04-06T14:09:34.000Z</time>
</trkpt>
<trkpt lat="33.2227046" lon="35.6316596">
<ele>0.000000</ele>
<time>2015-04-06T14:09:40.000Z</time>
</trkpt>
<trkpt lat="33.2225514" lon="35.6312919">
<ele>0.000000</ele>
<time>2015-04-06T14:09:49.000Z</time>
</trkpt>
<trkpt lat="33.2225495" lon="35.6311796">
<ele>0.000000</ele>
<time>2015-04-06T14:10:29.000Z</time>
</trkpt>
<trkpt lat="33.2226113" lon="35.6311612">
<ele>0.000000</ele>
<time>2015-04-07T05:50:55.000Z</time>
</trkpt>
</trkseg>
</trk>
</gpx>
